Observation data for Caprock Canyons on 01/18/2019      Previous  Date  Next       Current Mesonet Observations  Soil Data  Daily Summary Page  Observations in Plain Language
KQU1 180600Z 20012KT 08/02 A2999 RMK A01 T00790016  RH  064%=      5-min Rain = 0
KQU1 180601Z 21011KT 08/02 A2999 RMK A01 T00800016  RH  064%=      5-min Rain = 0
KQU1 180602Z 21012KT 08/02 A2999 RMK A01 T00810016  RH  064%=      5-min Rain = 0
KQU1 180603Z 21012KT 08/02 A2999 RMK A01 T00830016  RH  063%=      5-min Rain = 0
KQU1 180604Z 21012KT 09/02 A2998 RMK A01 T00850016  RH  062%=      5-min Rain = 0
KQU1 180605Z 21013KT 09/02 A2998 RMK A01 T00870016  RH  061%=      5-min Rain = 0
KQU1 180606Z 22014KT 09/02 A2998 RMK A01 T00880016  RH  060%=      5-min Rain = 0
KQU1 180607Z 22014KT 09/02 A2998 RMK A01 T00900015  RH  060%=      5-min Rain = 0
KQU1 180608Z 22014KT 09/02 A2998 RMK A01 T00910015  RH  059%=      5-min Rain = 0
KQU1 180609Z 22013KT 09/01 A2998 RMK A01 T00900014  RH  059%=      5-min Rain = 0
KQU1 180610Z 22013KT 09/01 A2998 RMK A01 T00900014  RH  059%=      5-min Rain = 0
KQU1 180611Z 21014KT 09/01 A2998 RMK A01 T00900014  RH  059%=      5-min Rain = 0
KQU1 180612Z 22014KT 09/01 A2998 RMK A01 T00900014  RH  059%=      5-min Rain = 0
KQU1 180613Z 22013KT 09/01 A2997 RMK A01 T00900014  RH  059%=      5-min Rain = 0
KQU1 180614Z 22014KT 09/01 A2997 RMK A01 T00900014  RH  059%=      5-min Rain = 0
KQU1 180615Z 21012KT 09/01 A2997 RMK A01 T00900013  RH  059%=      5-min Rain = 0
KQU1 180616Z 21013KT 09/01 A2997 RMK A01 T00900013  RH  059%=      5-min Rain = 0
KQU1 180617Z 21013KT 09/01 A2997 RMK A01 T00900013  RH  059%=      5-min Rain = 0
KQU1 180618Z 21013KT 09/01 A2997 RMK A01 T00900013  RH  058%=      5-min Rain = 0
KQU1 180619Z 21012KT 09/01 A2997 RMK A01 T00900013  RH  058%=      5-min Rain = 0
KQU1 180620Z 22013KT 09/01 A2997 RMK A01 T00900013  RH  058%=      5-min Rain = 0
KQU1 180621Z 21013KT 09/01 A2997 RMK A01 T00900012  RH  058%=      5-min Rain = 0
KQU1 180622Z 21014KT 09/01 A2997 RMK A01 T00900012  RH  058%=      5-min Rain = 0
KQU1 180623Z 21014KT 09/01 A2997 RMK A01 T00910012  RH  058%=      5-min Rain = 0
KQU1 180624Z 21013KT 09/01 A2997 RMK A01 T00910012  RH  058%=      5-min Rain = 0
KQU1 180625Z 21014KT 09/01 A2997 RMK A01 T00920012  RH  057%=      5-min Rain = 0
KQU1 180626Z 21013KT 09/01 A2997 RMK A01 T00930012  RH  057%=      5-min Rain = 0
KQU1 180627Z 21013KT 09/01 A2997 RMK A01 T00930012  RH  057%=      5-min Rain = 0
KQU1 180628Z 21013KT 09/01 A2997 RMK A01 T00920011  RH  057%=      5-min Rain = 0
KQU1 180629Z 22012KT 09/01 A2997 RMK A01 T00920011  RH  057%=      5-min Rain = 0
KQU1 180630Z 21012KT 09/01 A2997 RMK A01 T00910011  RH  057%=      5-min Rain = 0
KQU1 180631Z 22012KT 09/01 A2997 RMK A01 T00900011  RH  058%=      5-min Rain = 0
KQU1 180632Z 22013KT 09/01 A2997 RMK A01 T00890011  RH  058%=      5-min Rain = 0
KQU1 180633Z 22013KT 09/01 A2997 RMK A01 T00880011  RH  058%=      5-min Rain = 0
KQU1 180634Z 22013KT 09/01 A2996 RMK A01 T00880011  RH  059%=      5-min Rain = 0
KQU1 180635Z 22013KT 09/01 A2996 RMK A01 T00880011  RH  059%=      5-min Rain = 0
KQU1 180636Z 22014KT 09/01 A2996 RMK A01 T00880011  RH  059%=      5-min Rain = 0
KQU1 180637Z 22014KT 09/01 A2996 RMK A01 T00880011  RH  058%=      5-min Rain = 0
KQU1 180638Z 22013KT 09/01 A2996 RMK A01 T00880011  RH  058%=      5-min Rain = 0
KQU1 180639Z 22014KT 09/01 A2996 RMK A01 T00890010  RH  058%=      5-min Rain = 0
KQU1 180640Z 22014KT 09/01 A2996 RMK A01 T00900010  RH  057%=      5-min Rain = 0
KQU1 180641Z 22015KT 09/01 A2996 RMK A01 T00920010  RH  057%=      5-min Rain = 0
KQU1 180642Z 22015KT 09/01 A2996 RMK A01 T00920009  RH  056%=      5-min Rain = 0
KQU1 180643Z 21015KT 09/01 A2996 RMK A01 T00930009  RH  056%=      5-min Rain = 0
KQU1 180644Z 22014KT 09/01 A2996 RMK A01 T00940008  RH  055%=      5-min Rain = 0
KQU1 180645Z 21014KT 09/01 A2996 RMK A01 T00930008  RH  055%=      5-min Rain = 0
KQU1 180646Z 21014KT 09/01 A2996 RMK A01 T00930008  RH  055%=      5-min Rain = 0
KQU1 180647Z 21014KT 09/01 A2996 RMK A01 T00920008  RH  055%=      5-min Rain = 0
KQU1 180648Z 21014KT 09/01 A2996 RMK A01 T00920008  RH  056%=      5-min Rain = 0
KQU1 180649Z 21014KT 09/01 A2996 RMK A01 T00910008  RH  056%=      5-min Rain = 0
KQU1 180650Z 21014KT 09/01 A2996 RMK A01 T00900007  RH  056%=      5-min Rain = 0
KQU1 180651Z 21013KT 09/01 A2996 RMK A01 T00890007  RH  057%=      5-min Rain = 0
KQU1 180652Z 21013KT 09/01 A2996 RMK A01 T00880007  RH  057%=      5-min Rain = 0
KQU1 180653Z 21013KT 09/01 A2996 RMK A01 T00870007  RH  057%=      5-min Rain = 0
KQU1 180654Z 21013KT 09/01 A2996 RMK A01 T00870007  RH  057%=      5-min Rain = 0
KQU1 180655Z 22013KT 09/01 A2996 RMK A01 T00870007  RH  057%=      5-min Rain = 0
KQU1 180656Z 21013KT 09/01 A2996 RMK A01 T00860006  RH  057%=      5-min Rain = 0
KQU1 180657Z 22013KT 09/01 A2996 RMK A01 T00860006  RH  057%=      5-min Rain = 0
KQU1 180658Z 21012KT 09/01 A2996 RMK A01 T00850006  RH  057%=      5-min Rain = 0
KQU1 180659Z 21013KT 09/01 A2996 RMK A01 T00850006  RH  057%=      5-min Rain = 0
KQU1 180700Z 21013KT 09/01 A2996 RMK A01 T00850006  RH  057%=      5-min Rain = 0
KQU1 180701Z 21013KT 09/01 A2996 RMK A01 T00850005  RH  057%=      5-min Rain = 0
KQU1 180702Z 21013KT 09/01 A2996 RMK A01 T00850005  RH  057%=      5-min Rain = 0
KQU1 180703Z 21013KT 08/01 A2996 RMK A01 T00840005  RH  057%=      5-min Rain = 0
KQU1 180704Z 21013KT 08/01 A2996 RMK A01 T00840005  RH  057%=      5-min Rain = 0
KQU1 180705Z 21013KT 08/01 A2996 RMK A01 T00840005  RH  057%=      5-min Rain = 0
KQU1 180706Z 21013KT 08/01 A2996 RMK A01 T00840005  RH  057%=      5-min Rain = 0
KQU1 180707Z 21013KT 08/01 A2995 RMK A01 T00830005  RH  058%=      5-min Rain = 0
KQU1 180708Z 21012KT 08/00 A2995 RMK A01 T00830004  RH  058%=      5-min Rain = 0
KQU1 180709Z 21012KT 08/00 A2995 RMK A01 T00830004  RH  058%=      5-min Rain = 0
KQU1 180710Z 21013KT 08/00 A2995 RMK A01 T00820004  RH  058%=      5-min Rain = 0
KQU1 180711Z 21013KT 08/00 A2995 RMK A01 T00820004  RH  058%=      5-min Rain = 0
KQU1 180712Z 21013KT 08/00 A2995 RMK A01 T00820004  RH  058%=      5-min Rain = 0
KQU1 180713Z 21013KT 08/00 A2995 RMK A01 T00810004  RH  058%=      5-min Rain = 0
KQU1 180714Z 21012KT 08/00 A2995 RMK A01 T00810003  RH  058%=      5-min Rain = 0
KQU1 180715Z 21012KT 08/00 A2995 RMK A01 T00790003  RH  059%=      5-min Rain = 0
KQU1 180716Z 21012KT 08/00 A2995 RMK A01 T00780003  RH  059%=      5-min Rain = 0
KQU1 180717Z 20012KT 08/00 A2995 RMK A01 T00760002  RH  060%=      5-min Rain = 0
KQU1 180718Z 20012KT 07/00 A2995 RMK A01 T00740002  RH  060%=      5-min Rain = 0
KQU1 180719Z 20012KT 07/00 A2995 RMK A01 T00720002  RH  061%=      5-min Rain = 0
KQU1 180720Z 20012KT 07/00 A2995 RMK A01 T00710002  RH  062%=      5-min Rain = 0
KQU1 180721Z 20012KT 07/00 A2995 RMK A01 T00690002  RH  062%=      5-min Rain = 0
KQU1 180722Z 20013KT 07/00 A2995 RMK A01 T00690002  RH  063%=      5-min Rain = 0
KQU1 180723Z 20013KT 07/00 A2995 RMK A01 T00680002  RH  063%=      5-min Rain = 0
KQU1 180724Z 20013KT 07/00 A2995 RMK A01 T00680002  RH  063%=      5-min Rain = 0
KQU1 180725Z 20013KT 07/00 A2995 RMK A01 T00680002  RH  063%=      5-min Rain = 0
KQU1 180726Z 20013KT 07/00 A2995 RMK A01 T00670002  RH  063%=      5-min Rain = 0
KQU1 180727Z 20013KT 07/00 A2995 RMK A01 T00680002  RH  063%=      5-min Rain = 0
KQU1 180728Z 20013KT 07/00 A2995 RMK A01 T00680002  RH  063%=      5-min Rain = 0
KQU1 180729Z 21013KT 07/00 A2995 RMK A01 T00690003  RH  063%=      5-min Rain = 0
KQU1 180730Z 21013KT 07/00 A2994 RMK A01 T00690003  RH  063%=      5-min Rain = 0
KQU1 180731Z 21014KT 07/00 A2994 RMK A01 T00700003  RH  062%=      5-min Rain = 0
KQU1 180732Z 21013KT 07/00 A2994 RMK A01 T00700003  RH  062%=      5-min Rain = 0
KQU1 180733Z 21013KT 07/00 A2994 RMK A01 T00710003  RH  062%=      5-min Rain = 0
KQU1 180734Z 21014KT 07/00 A2994 RMK A01 T00720003  RH  062%=      5-min Rain = 0
KQU1 180735Z 21014KT 07/00 A2994 RMK A01 T00720003  RH  061%=      5-min Rain = 0
KQU1 180736Z 21014KT 07/00 A2994 RMK A01 T00730003  RH  061%=      5-min Rain = 0
KQU1 180737Z 21014KT 07/00 A2994 RMK A01 T00740003  RH  060%=      5-min Rain = 0
KQU1 180738Z 21014KT 08/00 A2994 RMK A01 T00750002  RH  060%=      5-min Rain = 0
KQU1 180739Z 21014KT 08/00 A2994 RMK A01 T00760002  RH  060%=      5-min Rain = 0
KQU1 180740Z 21014KT 08/00 A2994 RMK A01 T00770002  RH  059%=      5-min Rain = 0
KQU1 180741Z 22014KT 08/00 A2994 RMK A01 T00780002  RH  059%=      5-min Rain = 0
KQU1 180742Z 21014KT 08/00 A2994 RMK A01 T00780002  RH  058%=      5-min Rain = 0
KQU1 180743Z 21014KT 08/00 A2994 RMK A01 T00790002  RH  058%=      5-min Rain = 0
KQU1 180744Z 22014KT 08/00 A2994 RMK A01 T00800002  RH  058%=      5-min Rain = 0
KQU1 180745Z 22014KT 08/00 A2994 RMK A01 T00820002  RH  057%=      5-min Rain = 0
KQU1 180746Z 22014KT 08/00 A2994 RMK A01 T00830001  RH  057%=      5-min Rain = 0
KQU1 180747Z 22015KT 08/00 A2994 RMK A01 T00840001  RH  056%=      5-min Rain = 0
KQU1 180748Z 22014KT 09/00 A2994 RMK A01 T00850001  RH  055%=      5-min Rain = 0
KQU1 180749Z 22015KT 09/00 A2994 RMK A01 T00860001  RH  055%=      5-min Rain = 0
KQU1 180750Z 22014KT 09/00 A2994 RMK A01 T00870001  RH  054%=      5-min Rain = 0
KQU1 180751Z 22015KT 09/00 A2994 RMK A01 T00880000  RH  054%=      5-min Rain = 0
KQU1 180752Z 22016KT 09/00 A2994 RMK A01 T00890000  RH  054%=      5-min Rain = 0
KQU1 180753Z 22016KT 09/00 A2994 RMK A01 T009000-0  RH  053%=      5-min Rain = 0
KQU1 180754Z 22016KT 09/00 A2994 RMK A01 T009100-0  RH  053%=      5-min Rain = 0
KQU1 180755Z 22016KT 09/M00 A2994 RMK A01 T00911001  RH  053%=      5-min Rain = 0
KQU1 180756Z 22016KT 09/M00 A2994 RMK A01 T00921001  RH  052%=      5-min Rain = 0
KQU1 180757Z 22016KT 09/M00 A2994 RMK A01 T00921001  RH  052%=      5-min Rain = 0
KQU1 180758Z 22016KT 09/M00 A2994 RMK A01 T00921001  RH  052%=      5-min Rain = 0
KQU1 180759Z 22016KT 09/M00 A2994 RMK A01 T00921001  RH  052%=      5-min Rain = 0
KQU1 180800Z 22015KT 09/M00 A2993 RMK A01 T00921001  RH  052%=      5-min Rain = 0
KQU1 180801Z 22015KT 09/M00 A2993 RMK A01 T00921001  RH  052%=      5-min Rain = 0
KQU1 180802Z 22015KT 09/M00 A2993 RMK A01 T00911001  RH  052%=      5-min Rain = 0
KQU1 180803Z 22015KT 09/M00 A2993 RMK A01 T00911001  RH  052%=      5-min Rain = 0
KQU1 180804Z 22015KT 09/M00 A2993 RMK A01 T00911001  RH  053%=      5-min Rain = 0
KQU1 180805Z 22015KT 09/00 A2993 RMK A01 T009100-0  RH  053%=      5-min Rain = 0
KQU1 180806Z 22016KT 09/00 A2993 RMK A01 T009200-0  RH  052%=      5-min Rain = 0
KQU1 180807Z 22017KT 09/00 A2993 RMK A01 T009300-0  RH  052%=      5-min Rain = 0
KQU1 180808Z 22017KT 09/00 A2993 RMK A01 T00940000  RH  052%=      5-min Rain = 0
KQU1 180809Z 22016KT 10/00 A2993 RMK A01 T00950000  RH  052%=      5-min Rain = 0
KQU1 180810Z 22017KT 10/00 A2993 RMK A01 T00960000  RH  051%=      5-min Rain = 0
KQU1 180811Z 22017KT 10/00 A2992 RMK A01 T00970001  RH  051%=      5-min Rain = 0
KQU1 180812Z 22017KT 10/00 A2992 RMK A01 T00980000  RH  051%=      5-min Rain = 0
KQU1 180813Z 22018KT 10/00 A2992 RMK A01 T00990001  RH  050%=      5-min Rain = 0
KQU1 180814Z 22019KT 10/00 A2992 RMK A01 T01000001  RH  050%=      5-min Rain = 0
KQU1 180815Z 22018KT 10/00 A2992 RMK A01 T01020001  RH  050%=      5-min Rain = 0
KQU1 180816Z 22017KT 10/00 A2992 RMK A01 T01020001  RH  050%=      5-min Rain = 0
KQU1 180817Z 22017KT 10/00 A2992 RMK A01 T01020001  RH  050%=      5-min Rain = 0
KQU1 180818Z 21017G22KT 10/00 A2992 RMK A01 T01020001  RH  050%=      5-min Rain = 0
KQU1 180819Z 22018KT 10/00 A2992 RMK A01 T01020002  RH  050%=      5-min Rain = 0
KQU1 180820Z 21019KT 10/00 A2992 RMK A01 T01020002  RH  050%=      5-min Rain = 0
KQU1 180821Z 21019KT 10/00 A2992 RMK A01 T01030002  RH  049%=      5-min Rain = 0
KQU1 180822Z 22019KT 10/00 A2992 RMK A01 T01030002  RH  049%=      5-min Rain = 0
KQU1 180823Z 22019KT 10/00 A2992 RMK A01 T01040002  RH  049%=      5-min Rain = 0
KQU1 180824Z 22018KT 10/00 A2992 RMK A01 T01040002  RH  049%=      5-min Rain = 0
KQU1 180825Z 22018KT 10/00 A2992 RMK A01 T01030002  RH  049%=      5-min Rain = 0
KQU1 180826Z 22018KT 10/00 A2992 RMK A01 T01030002  RH  050%=      5-min Rain = 0
KQU1 180827Z 21017KT 10/00 A2992 RMK A01 T01020002  RH  050%=      5-min Rain = 0
KQU1 180828Z 22018KT 10/00 A2992 RMK A01 T01020002  RH  050%=      5-min Rain = 0
KQU1 180829Z 21019KT 10/00 A2992 RMK A01 T01020002  RH  050%=      5-min Rain = 0
KQU1 180830Z 21017KT 10/00 A2992 RMK A01 T01020002  RH  050%=      5-min Rain = 0
KQU1 180831Z 22019KT 10/00 A2991 RMK A01 T01010003  RH  050%=      5-min Rain = 0
KQU1 180832Z 22018KT 10/00 A2991 RMK A01 T01020003  RH  050%=      5-min Rain = 0
KQU1 180833Z 22019KT 10/00 A2991 RMK A01 T01010003  RH  051%=      5-min Rain = 0
KQU1 180834Z 22018KT 10/00 A2991 RMK A01 T01020004  RH  050%=      5-min Rain = 0
KQU1 180835Z 22019KT 10/00 A2991 RMK A01 T01020004  RH  051%=      5-min Rain = 0
KQU1 180836Z 22019G24KT 10/00 A2991 RMK A01 T01020004  RH  051%=      5-min Rain = 0
KQU1 180837Z 21018KT 10/01 A2991 RMK A01 T01020005  RH  051%=      5-min Rain = 0
KQU1 180838Z 21018KT 10/01 A2991 RMK A01 T01020005  RH  051%=      5-min Rain = 0
KQU1 180839Z 21018KT 10/01 A2991 RMK A01 T01020006  RH  051%=      5-min Rain = 0
KQU1 180840Z 21017KT 10/01 A2991 RMK A01 T01020006  RH  051%=      5-min Rain = 0
KQU1 180841Z 21016KT 10/01 A2991 RMK A01 T01020006  RH  051%=      5-min Rain = 0
KQU1 180842Z 21016KT 10/01 A2991 RMK A01 T01010006  RH  052%=      5-min Rain = 0
KQU1 180843Z 21018KT 10/01 A2991 RMK A01 T01010007  RH  052%=      5-min Rain = 0
KQU1 180844Z 21016KT 10/01 A299 RMK A01 T01020007  RH  052%=      5-min Rain = 0
KQU1 180845Z 21017KT 10/01 A299 RMK A01 T01010008  RH  052%=      5-min Rain = 0
KQU1 180846Z 21016KT 10/01 A299 RMK A01 T01020008  RH  052%=      5-min Rain = 0
KQU1 180847Z 21017KT 10/01 A299 RMK A01 T01020008  RH  052%=      5-min Rain = 0
KQU1 180848Z 21017KT 10/01 A299 RMK A01 T01020008  RH  052%=      5-min Rain = 0
KQU1 180849Z 21016KT 10/01 A299 RMK A01 T01020008  RH  052%=      5-min Rain = 0
KQU1 180850Z 21016KT 10/01 A299 RMK A01 T01020008  RH  052%=      5-min Rain = 0
KQU1 180851Z 21017KT 10/01 A299 RMK A01 T01010008  RH  052%=      5-min Rain = 0
KQU1 180852Z 21017KT 10/01 A299 RMK A01 T01010008  RH  052%=      5-min Rain = 0
KQU1 180853Z 21016KT 10/01 A299 RMK A01 T01010008  RH  052%=      5-min Rain = 0
KQU1 180854Z 21016KT 10/01 A299 RMK A01 T01000008  RH  053%=      5-min Rain = 0
KQU1 180855Z 21017KT 10/01 A299 RMK A01 T01010008  RH  053%=      5-min Rain = 0
KQU1 180856Z 21016KT 10/01 A299 RMK A01 T01010008  RH  052%=      5-min Rain = 0
KQU1 180857Z 21016KT 10/01 A299 RMK A01 T01010008  RH  052%=      5-min Rain = 0
KQU1 180858Z 21018KT 10/01 A299 RMK A01 T01020008  RH  052%=      5-min Rain = 0
KQU1 180859Z 21017KT 10/01 A299 RMK A01 T01020008  RH  052%=      5-min Rain = 0
KQU1 180900Z 21016KT 10/01 A299 RMK A01 T01020008  RH  052%=      5-min Rain = 0
KQU1 180901Z 22018KT 10/01 A299 RMK A01 T01030008  RH  052%=      5-min Rain = 0
KQU1 180902Z 22018KT 10/01 A299 RMK A01 T01040008  RH  052%=      5-min Rain = 0
KQU1 180903Z 22017KT 10/01 A299 RMK A01 T01040008  RH  051%=      5-min Rain = 0
KQU1 180904Z 22018KT 11/01 A299 RMK A01 T01050008  RH  051%=      5-min Rain = 0
KQU1 180905Z 22020KT 11/01 A299 RMK A01 T01050008  RH  051%=      5-min Rain = 0
KQU1 180906Z 22018KT 11/01 A299 RMK A01 T01060008  RH  051%=      5-min Rain = 0
KQU1 180907Z 22018KT 11/01 A299 RMK A01 T01070008  RH  050%=      5-min Rain = 0
KQU1 180908Z 22018KT 11/01 A299 RMK A01 T01070008  RH  051%=      5-min Rain = 0
KQU1 180909Z 22017KT 11/01 A299 RMK A01 T01070008  RH  050%=      5-min Rain = 0
KQU1 180910Z 22016KT 11/01 A299 RMK A01 T01070008  RH  051%=      5-min Rain = 0
KQU1 180911Z 22016KT 11/01 A299 RMK A01 T01060008  RH  051%=      5-min Rain = 0
KQU1 180912Z 22016KT 11/01 A299 RMK A01 T01060009  RH  051%=      5-min Rain = 0
KQU1 180913Z 22017KT 11/01 A299 RMK A01 T01060009  RH  051%=      5-min Rain = 0
KQU1 180914Z 22018KT 11/01 A299 RMK A01 T01060009  RH  051%=      5-min Rain = 0
KQU1 180915Z 22017KT 11/01 A299 RMK A01 T01070009  RH  051%=      5-min Rain = 0
KQU1 180916Z 22018KT 11/01 A2989 RMK A01 T01070009  RH  051%=      5-min Rain = 0
KQU1 180917Z 22018KT 11/01 A2989 RMK A01 T01070010  RH  051%=      5-min Rain = 0
KQU1 180918Z 22016G22KT 11/01 A2989 RMK A01 T01070009  RH  051%=      5-min Rain = 0
KQU1 180919Z 22018KT 11/01 A2989 RMK A01 T01070010  RH  051%=      5-min Rain = 0
KQU1 180920Z 22018KT 11/01 A2989 RMK A01 T01080009  RH  051%=      5-min Rain = 0
KQU1 180921Z 22017KT 11/01 A2989 RMK A01 T01070009  RH  051%=      5-min Rain = 0
KQU1 180922Z 22018KT 11/01 A2989 RMK A01 T01070009  RH  051%=      5-min Rain = 0
KQU1 180923Z 22017KT 11/01 A2989 RMK A01 T01070009  RH  051%=      5-min Rain = 0
KQU1 180924Z 22017KT 11/01 A2989 RMK A01 T01060010  RH  051%=      5-min Rain = 0
KQU1 180925Z 22017KT 11/01 A2989 RMK A01 T01060009  RH  051%=      5-min Rain = 0
KQU1 180926Z 22017KT 11/01 A2989 RMK A01 T01060009  RH  051%=      5-min Rain = 0
KQU1 180927Z 22018KT 11/01 A2989 RMK A01 T01050010  RH  051%=      5-min Rain = 0
KQU1 180928Z 21017KT 11/01 A2988 RMK A01 T01050009  RH  052%=      5-min Rain = 0
KQU1 180929Z 21016KT 10/01 A2988 RMK A01 T01040009  RH  052%=      5-min Rain = 0
KQU1 180930Z 22017KT 10/01 A2988 RMK A01 T01030009  RH  052%=      5-min Rain = 0
KQU1 180931Z 21018KT 10/01 A2988 RMK A01 T01030009  RH  052%=      5-min Rain = 0
KQU1 180932Z 21018KT 10/01 A2988 RMK A01 T01030010  RH  052%=      5-min Rain = 0
KQU1 180933Z 22015KT 10/01 A2988 RMK A01 T01030009  RH  052%=      5-min Rain = 0
KQU1 180934Z 21015KT 10/01 A2988 RMK A01 T01020009  RH  052%=      5-min Rain = 0
KQU1 180935Z 22016KT 10/01 A2988 RMK A01 T01010009  RH  053%=      5-min Rain = 0
KQU1 180936Z 21016KT 10/01 A2988 RMK A01 T01000009  RH  053%=      5-min Rain = 0
KQU1 180937Z 21016KT 10/01 A2988 RMK A01 T00990009  RH  053%=      5-min Rain = 0
KQU1 180938Z 21016KT 10/01 A2988 RMK A01 T00990009  RH  053%=      5-min Rain = 0
KQU1 180939Z 21015KT 10/01 A2988 RMK A01 T00980008  RH  054%=      5-min Rain = 0
KQU1 180940Z 21015KT 10/01 A2988 RMK A01 T00970008  RH  054%=      5-min Rain = 0
KQU1 180941Z 21015KT 10/01 A2989 RMK A01 T00960008  RH  054%=      5-min Rain = 0
KQU1 180942Z 21015KT 10/01 A2989 RMK A01 T00950008  RH  055%=      5-min Rain = 0
KQU1 180943Z 21015KT 10/01 A2989 RMK A01 T00950008  RH  055%=      5-min Rain = 0
KQU1 180944Z 21015KT 10/01 A2989 RMK A01 T00950008  RH  055%=      5-min Rain = 0
KQU1 180945Z 21015KT 09/01 A2989 RMK A01 T00940008  RH  055%=      5-min Rain = 0
KQU1 180946Z 22015KT 09/01 A2989 RMK A01 T00940008  RH  055%=      5-min Rain = 0
KQU1 180947Z 22015KT 09/01 A2989 RMK A01 T00940008  RH  055%=      5-min Rain = 0
KQU1 180948Z 22018KT 09/01 A2989 RMK A01 T00940009  RH  055%=      5-min Rain = 0
KQU1 180949Z 22015KT 10/01 A2989 RMK A01 T00950009  RH  055%=      5-min Rain = 0
KQU1 180950Z 22015KT 10/01 A2989 RMK A01 T00950008  RH  055%=      5-min Rain = 0
KQU1 180951Z 22016KT 10/01 A2988 RMK A01 T00950009  RH  055%=      5-min Rain = 0
KQU1 180952Z 22015KT 10/01 A2988 RMK A01 T00950009  RH  055%=      5-min Rain = 0
KQU1 180953Z 22015KT 10/01 A2988 RMK A01 T00950009  RH  055%=      5-min Rain = 0
KQU1 180954Z 22015G20KT 10/01 A2988 RMK A01 T00950009  RH  055%=      5-min Rain = 0
KQU1 180955Z 22016KT 10/01 A2988 RMK A01 T00950010  RH  055%=      5-min Rain = 0
KQU1 180956Z 23017KT 10/01 A2988 RMK A01 T00970010  RH  055%=      5-min Rain = 0
KQU1 180957Z 22017KT 10/01 A2988 RMK A01 T00990011  RH  054%=      5-min Rain = 0
KQU1 180958Z 23018KT 10/01 A2988 RMK A01 T01010011  RH  054%=      5-min Rain = 0
KQU1 180959Z 23018KT 10/01 A2988 RMK A01 T01020011  RH  053%=      5-min Rain = 0
KQU1 181000Z 23019G24KT 10/01 A2988 RMK A01 T01030011  RH  053%=      5-min Rain = 0
KQU1 181001Z 23020KT 10/01 A2988 RMK A01 T01040011  RH  052%=      5-min Rain = 0
KQU1 181002Z 23019KT 11/01 A2988 RMK A01 T01050011  RH  052%=      5-min Rain = 0
KQU1 181003Z 23019KT 11/01 A2988 RMK A01 T01050011  RH  052%=      5-min Rain = 0
KQU1 181004Z 23019KT 11/01 A2988 RMK A01 T01050011  RH  052%=      5-min Rain = 0
KQU1 181005Z 23019KT 11/01 A2988 RMK A01 T01050011  RH  052%=      5-min Rain = 0
KQU1 181006Z 23016G21KT 10/01 A2988 RMK A01 T01040011  RH  052%=      5-min Rain = 0
KQU1 181007Z 23018KT 10/01 A2988 RMK A01 T01040011  RH  052%=      5-min Rain = 0
KQU1 181008Z 23019KT 10/01 A2988 RMK A01 T01040011  RH  053%=      5-min Rain = 0
KQU1 181009Z 23018G24KT 10/01 A2988 RMK A01 T01030010  RH  053%=      5-min Rain = 0
KQU1 181010Z 23020KT 10/01 A2987 RMK A01 T01030010  RH  053%=      5-min Rain = 0
KQU1 181011Z 23018KT 10/01 A2987 RMK A01 T01020010  RH  053%=      5-min Rain = 0
KQU1 181012Z 23018KT 10/01 A2987 RMK A01 T01010010  RH  053%=      5-min Rain = 0
KQU1 181013Z 23017KT 10/01 A2987 RMK A01 T01010010  RH  053%=      5-min Rain = 0
KQU1 181014Z 23017KT 10/01 A2987 RMK A01 T01000009  RH  053%=      5-min Rain = 0
KQU1 181015Z 23018KT 10/01 A2987 RMK A01 T01000009  RH  053%=      5-min Rain = 0
KQU1 181016Z 23017KT 10/01 A2987 RMK A01 T01000009  RH  053%=      5-min Rain = 0
KQU1 181017Z 23020KT 10/01 A2987 RMK A01 T00990009  RH  053%=      5-min Rain = 0
KQU1 181018Z 23018KT 10/01 A2987 RMK A01 T01000009  RH  053%=      5-min Rain = 0
KQU1 181019Z 23019KT 10/01 A2987 RMK A01 T00990008  RH  053%=      5-min Rain = 0
KQU1 181020Z 23018KT 10/01 A2987 RMK A01 T00990008  RH  053%=      5-min Rain = 0
KQU1 181021Z 23019KT 10/01 A2987 RMK A01 T00990008  RH  053%=      5-min Rain = 0
KQU1 181022Z 23020KT 10/01 A2987 RMK A01 T00990008  RH  053%=      5-min Rain = 0
KQU1 181023Z 23018KT 10/01 A2986 RMK A01 T00990007  RH  053%=      5-min Rain = 0
KQU1 181024Z 23018KT 10/01 A2986 RMK A01 T00990007  RH  053%=      5-min Rain = 0
KQU1 181025Z 23019KT 10/01 A2986 RMK A01 T00990007  RH  053%=      5-min Rain = 0
KQU1 181026Z 23019KT 10/01 A2986 RMK A01 T00990007  RH  052%=      5-min Rain = 0
KQU1 181027Z 23019KT 10/01 A2986 RMK A01 T01000006  RH  052%=      5-min Rain = 0
KQU1 181028Z 23018KT 10/01 A2986 RMK A01 T01000006  RH  052%=      5-min Rain = 0
KQU1 181029Z 22019KT 10/01 A2986 RMK A01 T01000006  RH  052%=      5-min Rain = 0
KQU1 181030Z 22019KT 10/01 A2985 RMK A01 T01000006  RH  052%=      5-min Rain = 0
KQU1 181031Z 23019KT 10/01 A2985 RMK A01 T01000006  RH  052%=      5-min Rain = 0
KQU1 181032Z 23018KT 10/01 A2985 RMK A01 T01000006  RH  052%=      5-min Rain = 0
KQU1 181033Z 23017KT 10/01 A2985 RMK A01 T00990005  RH  052%=      5-min Rain = 0
KQU1 181034Z 23018KT 10/01 A2985 RMK A01 T00990005  RH  052%=      5-min Rain = 0
KQU1 181035Z 23016KT 10/01 A2985 RMK A01 T00990005  RH  052%=      5-min Rain = 0
KQU1 181036Z 23018KT 10/01 A2985 RMK A01 T00990005  RH  052%=      5-min Rain = 0
KQU1 181037Z 23018KT 10/01 A2985 RMK A01 T00990005  RH  052%=      5-min Rain = 0
KQU1 181038Z 23019KT 10/01 A2985 RMK A01 T00990005  RH  052%=      5-min Rain = 0
KQU1 181039Z 23018KT 10/01 A2985 RMK A01 T01000005  RH  052%=      5-min Rain = 0
KQU1 181040Z 23021KT 10/00 A2985 RMK A01 T01000004  RH  051%=      5-min Rain = 0
KQU1 181041Z 23018KT 10/00 A2985 RMK A01 T01010004  RH  051%=      5-min Rain = 0
KQU1 181042Z 23018G23KT 10/00 A2985 RMK A01 T01000004  RH  051%=      5-min Rain = 0
KQU1 181043Z 23020KT 10/00 A2985 RMK A01 T01000004  RH  051%=      5-min Rain = 0
KQU1 181044Z 23021KT 10/00 A2985 RMK A01 T01000003  RH  051%=      5-min Rain = 0
KQU1 181045Z 23017KT 10/00 A2985 RMK A01 T01010003  RH  051%=      5-min Rain = 0
KQU1 181046Z 23015G20KT 10/00 A2985 RMK A01 T00990003  RH  051%=      5-min Rain = 0
KQU1 181047Z 23015KT 10/00 A2985 RMK A01 T00980003  RH  051%=      5-min Rain = 0
KQU1 181048Z 23019KT 10/00 A2985 RMK A01 T00980002  RH  051%=      5-min Rain = 0
KQU1 181049Z 23018KT 10/00 A2984 RMK A01 T00980002  RH  051%=      5-min Rain = 0
KQU1 181050Z 23017KT 10/00 A2984 RMK A01 T00980002  RH  051%=      5-min Rain = 0
KQU1 181051Z 23018KT 10/00 A2984 RMK A01 T00980001  RH  051%=      5-min Rain = 0
KQU1 181052Z 23017KT 10/00 A2984 RMK A01 T00980001  RH  051%=      5-min Rain = 0
KQU1 181053Z 22017KT 10/00 A2984 RMK A01 T00970001  RH  051%=      5-min Rain = 0
KQU1 181054Z 23017KT 10/00 A2984 RMK A01 T00960001  RH  051%=      5-min Rain = 0
KQU1 181055Z 23016KT 10/00 A2984 RMK A01 T00960001  RH  052%=      5-min Rain = 0
KQU1 181056Z 23016KT 10/00 A2984 RMK A01 T00950001  RH  052%=      5-min Rain = 0
KQU1 181057Z 23015KT 09/00 A2984 RMK A01 T00940001  RH  052%=      5-min Rain = 0
KQU1 181058Z 23016KT 09/00 A2984 RMK A01 T00940001  RH  052%=      5-min Rain = 0
KQU1 181059Z 23016KT 09/00 A2984 RMK A01 T00930000  RH  052%=      5-min Rain = 0
KQU1 181100Z 23019KT 09/00 A2984 RMK A01 T00940000  RH  052%=      5-min Rain = 0
KQU1 181101Z 23018KT 09/00 A2984 RMK A01 T009400-0  RH  052%=      5-min Rain = 0
KQU1 181102Z 23019KT 09/00 A2983 RMK A01 T009400-0  RH  052%=      5-min Rain = 0
KQU1 181103Z 23017KT 09/00 A2983 RMK A01 T009400-0  RH  052%=      5-min Rain = 0
KQU1 181104Z 23016KT 09/M00 A2983 RMK A01 T00931001  RH  052%=      5-min Rain = 0
KQU1 181105Z 23018KT 09/M00 A2983 RMK A01 T00931001  RH  052%=      5-min Rain = 0
KQU1 181106Z 23018KT 09/M00 A2983 RMK A01 T00921001  RH  052%=      5-min Rain = 0
KQU1 181107Z 23018KT 09/M00 A2983 RMK A01 T00921001  RH  052%=      5-min Rain = 0
KQU1 181108Z 23019KT 09/M00 A2983 RMK A01 T00921001  RH  052%=      5-min Rain = 0
KQU1 181109Z 23018KT 09/M00 A2983 RMK A01 T00921001  RH  052%=      5-min Rain = 0
KQU1 181110Z 23017KT 09/M00 A2982 RMK A01 T00911002  RH  052%=      5-min Rain = 0
KQU1 181111Z 23016KT 09/M00 A2982 RMK A01 T00911002  RH  052%=      5-min Rain = 0
KQU1 181112Z 23017KT 09/M00 A2982 RMK A01 T00911002  RH  052%=      5-min Rain = 0
KQU1 181113Z 23016KT 09/M00 A2982 RMK A01 T00901002  RH  052%=      5-min Rain = 0
KQU1 181114Z 23016KT 09/M00 A2982 RMK A01 T00901002  RH  053%=      5-min Rain = 0
KQU1 181115Z 23015KT 09/M00 A2982 RMK A01 T00901002  RH  053%=      5-min Rain = 0
KQU1 181116Z 24016KT 09/M00 A2982 RMK A01 T00901002  RH  053%=      5-min Rain = 0
KQU1 181117Z 23017KT 09/M00 A2982 RMK A01 T00901002  RH  052%=      5-min Rain = 0
KQU1 181118Z 23016KT 09/M00 A2982 RMK A01 T00901002  RH  052%=      5-min Rain = 0
KQU1 181119Z 23018KT 09/M00 A2981 RMK A01 T00911003  RH  052%=      5-min Rain = 0
KQU1 181120Z 23017G22KT 09/M00 A2981 RMK A01 T00921003  RH  052%=      5-min Rain = 0
KQU1 181121Z 24015G20KT 09/M00 A2981 RMK A01 T00921003  RH  052%=      5-min Rain = 0
KQU1 181122Z 23020KT 09/M00 A2981 RMK A01 T00921003  RH  051%=      5-min Rain = 0
KQU1 181123Z 23020KT 09/M00 A2981 RMK A01 T00931003  RH  051%=      5-min Rain = 0
KQU1 181124Z 23019KT 09/M00 A2981 RMK A01 T00931003  RH  051%=      5-min Rain = 0
KQU1 181125Z 23017KT 09/M00 A2981 RMK A01 T00931004  RH  051%=      5-min Rain = 0
KQU1 181126Z 23018KT 09/M00 A2981 RMK A01 T00931004  RH  051%=      5-min Rain = 0
KQU1 181127Z 24019KT 09/M00 A2981 RMK A01 T00931004  RH  051%=      5-min Rain = 0
KQU1 181128Z 24019KT 09/M00 A2981 RMK A01 T00931004  RH  051%=      5-min Rain = 0
KQU1 181129Z 24019KT 09/M00 A2981 RMK A01 T00931004  RH  051%=      5-min Rain = 0
KQU1 181130Z 24020KT 09/M01 A2981 RMK A01 T00931005  RH  050%=      5-min Rain = 0
KQU1 181131Z 24019KT 09/M01 A2981 RMK A01 T00931005  RH  050%=      5-min Rain = 0
KQU1 181132Z 24017KT 09/M01 A2981 RMK A01 T00931005  RH  050%=      5-min Rain = 0
KQU1 181133Z 23018KT 09/M01 A2981 RMK A01 T00921005  RH  050%=      5-min Rain = 0
KQU1 181134Z 24018KT 09/M01 A2981 RMK A01 T00921005  RH  050%=      5-min Rain = 0
KQU1 181135Z 24016KT 09/M01 A2981 RMK A01 T00921005  RH  051%=      5-min Rain = 0
KQU1 181136Z 24019KT 09/M01 A298 RMK A01 T00921006  RH  051%=      5-min Rain = 0
KQU1 181137Z 24016KT 09/M01 A298 RMK A01 T00921006  RH  051%=      5-min Rain = 0
KQU1 181138Z 24017KT 09/M01 A298 RMK A01 T00911006  RH  051%=      5-min Rain = 0
KQU1 181139Z 24018G23KT 09/M01 A298 RMK A01 T00911006  RH  051%=      5-min Rain = 0
KQU1 181140Z 23019KT 09/M01 A298 RMK A01 T00911006  RH  051%=      5-min Rain = 0
KQU1 181141Z 23017G23KT 09/M01 A298 RMK A01 T00911006  RH  051%=      5-min Rain = 0
KQU1 181142Z 23019KT 09/M01 A298 RMK A01 T00911006  RH  050%=      5-min Rain = 0
KQU1 181143Z 23018KT 09/M01 A298 RMK A01 T00911007  RH  050%=      5-min Rain = 0
KQU1 181144Z 23019KT 09/M01 A298 RMK A01 T00911007  RH  050%=      5-min Rain = 0
KQU1 181145Z 23018G23KT 09/M01 A298 RMK A01 T00901007  RH  051%=      5-min Rain = 0
KQU1 181146Z 23017KT 09/M01 A298 RMK A01 T00901007  RH  051%=      5-min Rain = 0
KQU1 181147Z 23016KT 09/M01 A298 RMK A01 T00891007  RH  051%=      5-min Rain = 0
KQU1 181148Z 23018G23KT 09/M01 A298 RMK A01 T00891007  RH  051%=      5-min Rain = 0
KQU1 181149Z 23019KT 09/M01 A298 RMK A01 T00891007  RH  051%=      5-min Rain = 0
KQU1 181150Z 23019KT 09/M01 A298 RMK A01 T00891007  RH  051%=      5-min Rain = 0
KQU1 181151Z 23018G24KT 09/M01 A298 RMK A01 T00891007  RH  051%=      5-min Rain = 0
KQU1 181152Z 23018KT 09/M01 A298 RMK A01 T00881007  RH  051%=      5-min Rain = 0
KQU1 181153Z 23017KT 09/M01 A298 RMK A01 T00881007  RH  051%=      5-min Rain = 0
KQU1 181154Z 23018KT 09/M01 A2979 RMK A01 T00871008  RH  051%=      5-min Rain = 0
KQU1 181155Z 23020KT 09/M01 A2979 RMK A01 T00871008  RH  051%=      5-min Rain = 0
KQU1 181156Z 23017KT 09/M01 A2979 RMK A01 T00871008  RH  051%=      5-min Rain = 0
KQU1 181157Z 23018KT 09/M01 A2979 RMK A01 T00871008  RH  051%=      5-min Rain = 0
KQU1 181158Z 23016G21KT 09/M01 A2979 RMK A01 T00861008  RH  052%=      5-min Rain = 0
KQU1 181159Z 23018KT 09/M01 A2979 RMK A01 T00861008  RH  052%=      5-min Rain = 0
KQU1 181200Z 23016KT 09/M01 A2979 RMK A01 T00861008  RH  052%=      5-min Rain = 0
KQU1 181201Z 23016KT 09/M01 A2979 RMK A01 T00861008  RH  052%=      5-min Rain = 0
KQU1 181202Z 23016KT 09/M01 A2979 RMK A01 T00861008  RH  052%=      5-min Rain = 0
KQU1 181203Z 23015KT 09/M01 A2978 RMK A01 T00861008  RH  052%=      5-min Rain = 0
KQU1 181204Z 22015KT 09/M01 A2978 RMK A01 T00851008  RH  052%=      5-min Rain = 0
KQU1 181205Z 22015KT 09/M01 A2978 RMK A01 T00861008  RH  052%=      5-min Rain = 0
KQU1 181206Z 22014KT 09/M01 A2978 RMK A01 T00861008  RH  052%=      5-min Rain = 0
KQU1 181207Z 22014KT 09/M01 A2978 RMK A01 T00861008  RH  052%=      5-min Rain = 0
KQU1 181208Z 22015KT 09/M01 A2978 RMK A01 T00861008  RH  052%=      5-min Rain = 0
KQU1 181209Z 23015KT 09/M01 A2978 RMK A01 T00861008  RH  052%=      5-min Rain = 0
KQU1 181210Z 23014KT 09/M01 A2978 RMK A01 T00861008  RH  052%=      5-min Rain = 0
KQU1 181211Z 23013KT 09/M01 A2979 RMK A01 T00861008  RH  051%=      5-min Rain = 0
KQU1 181212Z 23014KT 09/M01 A2979 RMK A01 T00871008  RH  051%=      5-min Rain = 0
KQU1 181213Z 23014KT 09/M01 A2978 RMK A01 T00881009  RH  051%=      5-min Rain = 0
KQU1 181214Z 23013KT 09/M01 A2978 RMK A01 T00881009  RH  050%=      5-min Rain = 0
KQU1 181215Z 22014KT 09/M01 A2978 RMK A01 T00891009  RH  050%=      5-min Rain = 0
KQU1 181216Z 23014KT 09/M01 A2978 RMK A01 T00901010  RH  049%=      5-min Rain = 0
KQU1 181217Z 22014KT 09/M01 A2978 RMK A01 T00911010  RH  049%=      5-min Rain = 0
KQU1 181218Z 22015KT 09/M01 A2978 RMK A01 T00921011  RH  049%=      5-min Rain = 0
KQU1 181219Z 22014KT 09/M01 A2978 RMK A01 T00931011  RH  048%=      5-min Rain = 0
KQU1 181220Z 22015KT 09/M01 A2978 RMK A01 T00931011  RH  048%=      5-min Rain = 0
KQU1 181221Z 22013KT 09/M01 A2978 RMK A01 T00921011  RH  049%=      5-min Rain = 0
KQU1 181222Z 22014KT 09/M01 A2978 RMK A01 T00911011  RH  049%=      5-min Rain = 0
KQU1 181223Z 23013KT 09/M01 A2978 RMK A01 T00901010  RH  049%=      5-min Rain = 0
KQU1 181224Z 22013KT 09/M01 A2978 RMK A01 T00891010  RH  050%=      5-min Rain = 0
KQU1 181225Z 22014KT 09/M01 A2978 RMK A01 T00891010  RH  050%=      5-min Rain = 0
KQU1 181226Z 22013KT 09/M01 A2978 RMK A01 T00891010  RH  050%=      5-min Rain = 0
KQU1 181227Z 23014KT 09/M01 A2978 RMK A01 T00891010  RH  050%=      5-min Rain = 0
KQU1 181228Z 22014G20KT 09/M01 A2978 RMK A01 T00901011  RH  049%=      5-min Rain = 0
KQU1 181229Z 22014KT 09/M01 A2978 RMK A01 T00901011  RH  049%=      5-min Rain = 0
KQU1 181230Z 22014KT 09/M01 A2977 RMK A01 T00901011  RH  049%=      5-min Rain = 0
KQU1 181231Z 21012KT 09/M01 A2977 RMK A01 T00901011  RH  049%=      5-min Rain = 0
KQU1 181232Z 21013KT 09/M01 A2977 RMK A01 T00881011  RH  050%=      5-min Rain = 0
KQU1 181233Z 20013KT 09/M01 A2977 RMK A01 T00871010  RH  050%=      5-min Rain = 0
KQU1 181234Z 20013KT 09/M01 A2977 RMK A01 T00851010  RH  051%=      5-min Rain = 0
KQU1 181235Z 20012KT 08/M01 A2976 RMK A01 T00841010  RH  052%=      5-min Rain = 0
KQU1 181236Z 20012KT 08/M01 A2976 RMK A01 T00811010  RH  053%=      5-min Rain = 0
KQU1 181237Z 20012KT 08/M01 A2976 RMK A01 T00781009  RH  054%=      5-min Rain = 0
KQU1 181238Z 20012KT 08/M01 A2977 RMK A01 T00761009  RH  055%=      5-min Rain = 0
KQU1 181239Z 20012KT 07/M01 A2977 RMK A01 T00741009  RH  056%=      5-min Rain = 0
KQU1 181240Z 20012KT 07/M01 A2977 RMK A01 T00721008  RH  057%=      5-min Rain = 0
KQU1 181241Z 20012KT 07/M01 A2977 RMK A01 T00701008  RH  057%=      5-min Rain = 0
KQU1 181242Z 20012KT 07/M01 A2977 RMK A01 T00691008  RH  058%=      5-min Rain = 0
KQU1 181243Z 20013KT 07/M01 A2977 RMK A01 T00681008  RH  058%=      5-min Rain = 0
KQU1 181244Z 21014KT 07/M01 A2977 RMK A01 T00671008  RH  059%=      5-min Rain = 0
KQU1 181245Z 21014KT 07/M01 A2977 RMK A01 T00681007  RH  059%=      5-min Rain = 0
KQU1 181246Z 21014KT 07/M01 A2977 RMK A01 T00681007  RH  059%=      5-min Rain = 0
KQU1 181247Z 21014KT 07/M01 A2977 RMK A01 T00691007  RH  058%=      5-min Rain = 0
KQU1 181248Z 21014KT 07/M01 A2977 RMK A01 T00691007  RH  058%=      5-min Rain = 0
KQU1 181249Z 21014KT 07/M01 A2977 RMK A01 T00691007  RH  058%=      5-min Rain = 0
KQU1 181250Z 21014KT 07/M01 A2977 RMK A01 T00701007  RH  058%=      5-min Rain = 0
KQU1 181251Z 21013KT 07/M01 A2978 RMK A01 T00701007  RH  058%=      5-min Rain = 0
KQU1 181252Z 22013KT 07/M01 A2978 RMK A01 T00701007  RH  058%=      5-min Rain = 0
KQU1 181253Z 22013KT 07/M01 A2978 RMK A01 T00691007  RH  058%=      5-min Rain = 0
KQU1 181254Z 22013KT 07/M01 A2978 RMK A01 T00701007  RH  058%=      5-min Rain = 0
KQU1 181255Z 22013KT 07/M01 A2978 RMK A01 T00701007  RH  058%=      5-min Rain = 0
KQU1 181256Z 23013KT 07/M01 A2978 RMK A01 T00711007  RH  058%=      5-min Rain = 0
KQU1 181257Z 23019KT 08/M01 A2979 RMK A01 T00751007  RH  056%=      5-min Rain = 0
KQU1 181258Z 23019KT 08/M01 A2978 RMK A01 T00801008  RH  054%=      5-min Rain = 0
KQU1 181259Z 23017G22KT 08/M01 A2978 RMK A01 T00841008  RH  052%=      5-min Rain = 0
KQU1 181300Z 23019KT 09/M01 A2978 RMK A01 T00851009  RH  052%=      5-min Rain = 0
KQU1 181301Z 23019KT 09/M01 A2978 RMK A01 T00871009  RH  051%=      5-min Rain = 0
KQU1 181302Z 23019KT 09/M01 A2978 RMK A01 T00871009  RH  051%=      5-min Rain = 0
KQU1 181303Z 23019KT 09/M01 A2978 RMK A01 T00871009  RH  051%=      5-min Rain = 0
KQU1 181304Z 23019KT 09/M01 A2979 RMK A01 T00871009  RH  051%=      5-min Rain = 0
KQU1 181305Z 23019KT 09/M01 A2979 RMK A01 T00871008  RH  051%=      5-min Rain = 0
KQU1 181306Z 23019KT 09/M01 A2978 RMK A01 T00871008  RH  051%=      5-min Rain = 0
KQU1 181307Z 23017KT 09/M01 A2978 RMK A01 T00871008  RH  051%=      5-min Rain = 0
KQU1 181308Z 23020KT 09/M01 A2978 RMK A01 T00871008  RH  051%=      5-min Rain = 0
KQU1 181309Z 23018KT 09/M01 A2978 RMK A01 T00871008  RH  051%=      5-min Rain = 0
KQU1 181310Z 23019KT 09/M01 A2978 RMK A01 T00871008  RH  051%=      5-min Rain = 0
KQU1 181311Z 23016KT 09/M01 A2978 RMK A01 T00871008  RH  051%=      5-min Rain = 0
KQU1 181312Z 23016KT 09/M01 A2979 RMK A01 T00871008  RH  051%=      5-min Rain = 0
KQU1 181313Z 23018KT 09/M01 A2979 RMK A01 T00871008  RH  052%=      5-min Rain = 0
KQU1 181314Z 23016KT 09/M01 A2979 RMK A01 T00871008  RH  051%=      5-min Rain = 0
KQU1 181315Z 23020G25KT 09/M01 A2979 RMK A01 T00871008  RH  051%=      5-min Rain = 0
KQU1 181316Z 23017KT 09/M01 A2979 RMK A01 T00881007  RH  051%=      5-min Rain = 0
KQU1 181317Z 23019KT 09/M01 A2979 RMK A01 T00881008  RH  051%=      5-min Rain = 0
KQU1 181318Z 23017KT 09/M01 A2979 RMK A01 T00881008  RH  051%=      5-min Rain = 0
KQU1 181319Z 23017KT 09/M01 A2979 RMK A01 T00881008  RH  051%=      5-min Rain = 0
KQU1 181320Z 23014KT 09/M01 A2979 RMK A01 T00881008  RH  051%=      5-min Rain = 0
KQU1 181321Z 23016KT 09/M01 A2979 RMK A01 T00881008  RH  051%=      5-min Rain = 0
KQU1 181322Z 23015KT 09/M01 A2979 RMK A01 T00881008  RH  051%=      5-min Rain = 0
KQU1 181323Z 23016KT 09/M01 A2979 RMK A01 T00881008  RH  051%=      5-min Rain = 0
KQU1 181324Z 23017KT 09/M01 A2979 RMK A01 T00881008  RH  051%=      5-min Rain = 0
KQU1 181325Z 22017KT 09/M01 A2979 RMK A01 T00881008  RH  051%=      5-min Rain = 0
KQU1 181326Z 23016KT 09/M01 A2979 RMK A01 T00881008  RH  051%=      5-min Rain = 0
KQU1 181327Z 23017KT 09/M01 A2979 RMK A01 T00871007  RH  051%=      5-min Rain = 0
KQU1 181328Z 23017KT 09/M01 A2979 RMK A01 T00871007  RH  051%=      5-min Rain = 0
KQU1 181329Z 23017KT 09/M01 A2979 RMK A01 T00871008  RH  051%=      5-min Rain = 0
KQU1 181330Z 24017KT 09/M01 A2979 RMK A01 T00871008  RH  051%=      5-min Rain = 0
KQU1 181331Z 23016KT 09/M01 A2979 RMK A01 T00871008  RH  051%=      5-min Rain = 0
KQU1 181332Z 23016KT 09/M01 A2979 RMK A01 T00871008  RH  051%=      5-min Rain = 0
KQU1 181333Z 23017KT 09/M01 A2979 RMK A01 T00881008  RH  051%=      5-min Rain = 0
KQU1 181334Z 23016KT 09/M01 A2978 RMK A01 T00881008  RH  051%=      5-min Rain = 0
KQU1 181335Z 23016KT 09/M01 A2978 RMK A01 T00881008  RH  051%=      5-min Rain = 0
KQU1 181336Z 23014KT 09/M01 A2978 RMK A01 T00881008  RH  051%=      5-min Rain = 0
KQU1 181337Z 23014KT 09/M01 A2978 RMK A01 T00881008  RH  051%=      5-min Rain = 0
KQU1 181338Z 23012KT 09/M01 A2978 RMK A01 T00871008  RH  051%=      5-min Rain = 0
KQU1 181339Z 22014KT 09/M01 A2978 RMK A01 T00871008  RH  051%=      5-min Rain = 0
KQU1 181340Z 23015KT 09/M01 A2978 RMK A01 T00871008  RH  051%=      5-min Rain = 0
KQU1 181341Z 23015KT 09/M01 A2978 RMK A01 T00871009  RH  051%=      5-min Rain = 0
KQU1 181342Z 23014KT 09/M01 A2978 RMK A01 T00881009  RH  051%=      5-min Rain = 0
KQU1 181343Z 23014G19KT 09/M01 A2978 RMK A01 T00891009  RH  050%=      5-min Rain = 0
KQU1 181344Z 23016KT 09/M01 A2978 RMK A01 T00901009  RH  050%=      5-min Rain = 0
KQU1 181345Z 24015KT 09/M01 A2978 RMK A01 T00911010  RH  049%=      5-min Rain = 0
KQU1 181346Z 23016KT 09/M01 A2978 RMK A01 T00921010  RH  049%=      5-min Rain = 0
KQU1 181347Z 24017KT 09/M01 A2978 RMK A01 T00931010  RH  048%=      5-min Rain = 0
KQU1 181348Z 24017G22KT 10/M01 A2978 RMK A01 T00951011  RH  048%=      5-min Rain = 0
KQU1 181349Z 23014KT 10/M01 A2977 RMK A01 T00951011  RH  047%=      5-min Rain = 0
KQU1 181350Z 23016KT 10/M01 A2977 RMK A01 T00961011  RH  047%=      5-min Rain = 0
KQU1 181351Z 23016KT 10/M01 A2977 RMK A01 T00971011  RH  047%=      5-min Rain = 0
KQU1 181352Z 24016KT 10/M01 A2977 RMK A01 T00981011  RH  046%=      5-min Rain = 0
KQU1 181353Z 24017KT 10/M01 A2977 RMK A01 T00991011  RH  046%=      5-min Rain = 0
KQU1 181354Z 23015KT 10/M01 A2977 RMK A01 T01001011  RH  046%=      5-min Rain = 0
KQU1 181355Z 23014KT 10/M01 A2977 RMK A01 T01001011  RH  046%=      5-min Rain = 0
KQU1 181356Z 23014KT 10/M01 A2977 RMK A01 T01001011  RH  046%=      5-min Rain = 0
KQU1 181357Z 24015KT 10/M01 A2977 RMK A01 T01011011  RH  046%=      5-min Rain = 0
KQU1 181358Z 23013KT 10/M01 A2977 RMK A01 T01021011  RH  045%=      5-min Rain = 0
KQU1 181359Z 24014KT 10/M01 A2977 RMK A01 T01031011  RH  045%=      5-min Rain = 0
KQU1 181400Z 24015KT 10/M01 A2977 RMK A01 T01041011  RH  045%=      5-min Rain = 0
KQU1 181401Z 23013KT 11/M01 A2977 RMK A01 T01051011  RH  044%=      5-min Rain = 0
KQU1 181402Z 24014KT 11/M01 A2977 RMK A01 T01061011  RH  044%=      5-min Rain = 0
KQU1 181403Z 24015KT 11/M01 A2977 RMK A01 T01061012  RH  044%=      5-min Rain = 0
KQU1 181404Z 24012KT 11/M01 A2977 RMK A01 T01071012  RH  044%=      5-min Rain = 0
KQU1 181405Z 24012KT 11/M01 A2977 RMK A01 T01071012  RH  044%=      5-min Rain = 0
KQU1 181406Z 25012KT 11/M01 A2977 RMK A01 T01071012  RH  043%=      5-min Rain = 0
KQU1 181407Z 25015KT 11/M01 A2977 RMK A01 T01071012  RH  043%=      5-min Rain = 0
KQU1 181408Z 25017G25KT 11/M01 A2976 RMK A01 T01081013  RH  043%=      5-min Rain = 0
KQU1 181409Z 25020KT 11/M01 A2976 RMK A01 T01091013  RH  043%=      5-min Rain = 0
KQU1 181410Z 25018KT 11/M01 A2976 RMK A01 T01091013  RH  042%=      5-min Rain = 0
KQU1 181411Z 25018KT 11/M01 A2976 RMK A01 T01101014  RH  042%=      5-min Rain = 0
KQU1 181412Z 25018G24KT 11/M01 A2976 RMK A01 T01101014  RH  042%=      5-min Rain = 0
KQU1 181413Z 25018KT 11/M01 A2976 RMK A01 T01111014  RH  042%=      5-min Rain = 0
KQU1 181414Z 25019KT 11/M01 A2976 RMK A01 T01121014  RH  041%=      5-min Rain = 0
KQU1 181415Z 25020G25KT 11/M02 A2976 RMK A01 T01141015  RH  041%=      5-min Rain = 0
KQU1 181416Z 25019G24KT 12/M02 A2976 RMK A01 T01161015  RH  040%=      5-min Rain = 0
KQU1 181417Z 25018KT 12/M02 A2977 RMK A01 T01161015  RH  040%=      5-min Rain = 0
KQU1 181418Z 25021KT 12/M02 A2977 RMK A01 T01171015  RH  040%=      5-min Rain = 0
KQU1 181419Z 25022G27KT 12/M02 A2976 RMK A01 T01191015  RH  039%=      5-min Rain = 0
KQU1 181420Z 25020KT 12/M02 A2976 RMK A01 T01201016  RH  039%=      5-min Rain = 0
KQU1 181421Z 25020G25KT 12/M02 A2977 RMK A01 T01211016  RH  039%=      5-min Rain = 0
KQU1 181422Z 25019G26KT 12/M02 A2977 RMK A01 T01221016  RH  038%=      5-min Rain = 0
KQU1 181423Z 25020G26KT 12/M02 A2977 RMK A01 T01241016  RH  038%=      5-min Rain = 0
KQU1 181424Z 25018KT 13/M02 A2977 RMK A01 T01251017  RH  037%=      5-min Rain = 0
KQU1 181425Z 25018KT 13/M02 A2977 RMK A01 T01261017  RH  037%=      5-min Rain = 0
KQU1 181426Z 25019KT 13/M02 A2977 RMK A01 T01271018  RH  036%=      5-min Rain = 0
KQU1 181427Z 24019KT 13/M02 A2976 RMK A01 T01291019  RH  036%=      5-min Rain = 0
KQU1 181428Z 24016KT 13/M02 A2976 RMK A01 T01311019  RH  035%=      5-min Rain = 0
KQU1 181429Z 24018G24KT 13/M02 A2976 RMK A01 T01311020  RH  035%=      5-min Rain = 0
KQU1 181430Z 24020G25KT 13/M02 A2976 RMK A01 T01331020  RH  034%=      5-min Rain = 0
KQU1 181431Z 24019G27KT 14/M02 A2976 RMK A01 T01351020  RH  034%=      5-min Rain = 0
KQU1 181432Z 24023G28KT 14/M02 A2976 RMK A01 T01361021  RH  034%=      5-min Rain = 0
KQU1 181433Z 24022KT 14/M02 A2976 RMK A01 T01361022  RH  033%=      5-min Rain = 0
KQU1 181434Z 24019G24KT 14/M02 A2976 RMK A01 T01361022  RH  034%=      5-min Rain = 0
KQU1 181435Z 24017KT 13/M02 A2976 RMK A01 T01341021  RH  034%=      5-min Rain = 0
KQU1 181436Z 24018KT 13/M02 A2976 RMK A01 T01341022  RH  034%=      5-min Rain = 0
KQU1 181437Z 24018G23KT 13/M02 A2976 RMK A01 T01331022  RH  034%=      5-min Rain = 0
KQU1 181438Z 24018G23KT 13/M02 A2975 RMK A01 T01331022  RH  034%=      5-min Rain = 0
KQU1 181439Z 24021KT 13/M02 A2975 RMK A01 T01331022  RH  034%=      5-min Rain = 0
KQU1 181440Z 24020G25KT 13/M02 A2975 RMK A01 T01321021  RH  035%=      5-min Rain = 0
KQU1 181441Z 24021KT 13/M02 A2975 RMK A01 T01301021  RH  035%=      5-min Rain = 0
KQU1 181442Z 23019G24KT 13/M02 A2975 RMK A01 T01291020  RH  035%=      5-min Rain = 0
KQU1 181443Z 24022KT 13/M02 A2975 RMK A01 T01281020  RH  036%=      5-min Rain = 0
KQU1 181444Z 23020KT 13/M02 A2975 RMK A01 T01271019  RH  036%=      5-min Rain = 0
KQU1 181445Z 23018G24KT 13/M02 A2975 RMK A01 T01251018  RH  037%=      5-min Rain = 0
KQU1 181446Z 23017KT 12/M02 A2975 RMK A01 T01231018  RH  037%=      5-min Rain = 0
KQU1 181447Z 24019KT 12/M02 A2975 RMK A01 T01221018  RH  038%=      5-min Rain = 0
KQU1 181448Z 24018KT 12/M02 A2975 RMK A01 T01221017  RH  038%=      5-min Rain = 0
KQU1 181449Z 24021G26KT 12/M02 A2975 RMK A01 T01211017  RH  038%=      5-min Rain = 0
KQU1 181450Z 24021KT 12/M02 A2975 RMK A01 T01221017  RH  038%=      5-min Rain = 0
KQU1 181451Z 24020KT 12/M02 A2975 RMK A01 T01231018  RH  038%=      5-min Rain = 0
KQU1 181452Z 24018G23KT 12/M02 A2975 RMK A01 T01231018  RH  038%=      5-min Rain = 0
KQU1 181453Z 24021G26KT 12/M02 A2975 RMK A01 T01231018  RH  037%=      5-min Rain = 0
KQU1 181454Z 24020KT 12/M02 A2975 RMK A01 T01241018  RH  037%=      5-min Rain = 0
KQU1 181455Z 24017G23KT 12/M02 A2975 RMK A01 T01241018  RH  037%=      5-min Rain = 0
KQU1 181456Z 24021KT 13/M02 A2975 RMK A01 T01251019  RH  037%=      5-min Rain = 0
KQU1 181457Z 24020KT 13/M02 A2975 RMK A01 T01261019  RH  036%=      5-min Rain = 0
KQU1 181458Z 24018G23KT 13/M02 A2975 RMK A01 T01261019  RH  036%=      5-min Rain = 0
KQU1 181459Z 24018KT 13/M02 A2975 RMK A01 T01261019  RH  037%=      5-min Rain = 0
KQU1 181500Z 25018G24KT 13/M02 A2976 RMK A01 T01261019  RH  036%=      5-min Rain = 0
KQU1 181501Z 25018G23KT 13/M02 A2975 RMK A01 T01271019  RH  036%=      5-min Rain = 0
KQU1 181502Z 25018KT 13/M02 A2975 RMK A01 T01271019  RH  036%=      5-min Rain = 0
KQU1 181503Z 25019G25KT 13/M02 A2975 RMK A01 T01281019  RH  036%=      5-min Rain = 0
KQU1 181504Z 25021KT 13/M02 A2975 RMK A01 T01291019  RH  036%=      5-min Rain = 0
KQU1 181505Z 25020G26KT 13/M02 A2975 RMK A01 T01291019  RH  036%=      5-min Rain = 0
KQU1 181506Z 25022G27KT 13/M02 A2975 RMK A01 T01301019  RH  036%=      5-min Rain = 0
KQU1 181507Z 25021KT 13/M02 A2975 RMK A01 T01301018  RH  036%=      5-min Rain = 0
KQU1 181508Z 26022G27KT 13/M02 A2975 RMK A01 T01301018  RH  036%=      5-min Rain = 0
KQU1 181509Z 26024G30KT 13/M02 A2975 RMK A01 T01301018  RH  036%=      5-min Rain = 0
KQU1 181510Z 25020G25KT 13/M02 A2975 RMK A01 T01291017  RH  036%=      5-min Rain = 0
KQU1 181511Z 25024KT 13/M02 A2975 RMK A01 T01301017  RH  036%=      5-min Rain = 0
KQU1 181512Z 26023G30KT 13/M02 A2975 RMK A01 T01321016  RH  036%=      5-min Rain = 0
KQU1 181513Z 26026G35KT 13/M02 A2975 RMK A01 T01341016  RH  035%=      5-min Rain = 0
KQU1 181514Z 26025KT 14/M02 A2975 RMK A01 T01361016  RH  035%=      5-min Rain = 0
KQU1 181515Z 26023G31KT 14/M02 A2975 RMK A01 T01381016  RH  035%=      5-min Rain = 0
KQU1 181516Z 25028G33KT 14/M02 A2975 RMK A01 T01371016  RH  035%=      5-min Rain = 0
KQU1 181517Z 26027G32KT 14/M02 A2975 RMK A01 T01371016  RH  035%=      5-min Rain = 0
KQU1 181518Z 26026G32KT 14/M02 A2975 RMK A01 T01361015  RH  035%=      5-min Rain = 0
KQU1 181519Z 26025KT 14/M02 A2975 RMK A01 T01351015  RH  035%=      5-min Rain = 0
KQU1 181520Z 26024KT 14/M02 A2975 RMK A01 T01351016  RH  035%=      5-min Rain = 0
KQU1 181521Z 26027G33KT 14/M02 A2975 RMK A01 T01351016  RH  035%=      5-min Rain = 0
KQU1 181522Z 26025G31KT 14/M02 A2975 RMK A01 T01371016  RH  035%=      5-min Rain = 0
KQU1 181523Z 26026KT 14/M02 A2975 RMK A01 T01371016  RH  035%=      5-min Rain = 0
KQU1 181524Z 26022G27KT 14/M02 A2975 RMK A01 T01361015  RH  035%=      5-min Rain = 0
KQU1 181525Z 26024KT 14/M01 A2975 RMK A01 T01361014  RH  035%=      5-min Rain = 0
KQU1 181526Z 25026KT 14/M01 A2975 RMK A01 T01371014  RH  035%=      5-min Rain = 0
KQU1 181527Z 26023KT 14/M01 A2975 RMK A01 T01391014  RH  035%=      5-min Rain = 0
KQU1 181528Z 25024KT 14/M02 A2975 RMK A01 T01411015  RH  034%=      5-min Rain = 0
KQU1 181529Z 25020G26KT 14/M01 A2975 RMK A01 T01431014  RH  034%=      5-min Rain = 0
KQU1 181530Z 25026G31KT 15/M01 A2974 RMK A01 T01451014  RH  033%=      5-min Rain = 0
KQU1 181531Z 25027G33KT 15/M01 A2974 RMK A01 T01461014  RH  033%=      5-min Rain = 0
KQU1 181532Z 25022G29KT 15/M01 A2974 RMK A01 T01461014  RH  033%=      5-min Rain = 0
KQU1 181533Z 26022KT 15/M01 A2974 RMK A01 T01471013  RH  033%=      5-min Rain = 0
KQU1 181534Z 25023G28KT 15/M01 A2974 RMK A01 T01491013  RH  033%=      5-min Rain = 0
KQU1 181535Z 26023KT 15/M01 A2974 RMK A01 T01501013  RH  033%=      5-min Rain = 0
KQU1 181536Z 25023G29KT 15/M01 A2975 RMK A01 T01511013  RH  032%=      5-min Rain = 0
KQU1 181537Z 25026G31KT 15/M01 A2974 RMK A01 T01521012  RH  032%=      5-min Rain = 0
KQU1 181538Z 25028G34KT 15/M01 A2974 RMK A01 T01541012  RH  032%=      5-min Rain = 0
KQU1 181539Z 25022KT 16/M01 A2975 RMK A01 T01561010  RH  032%=      5-min Rain = 0
KQU1 181540Z 26028G34KT 16/M01 A2975 RMK A01 T01581010  RH  032%=      5-min Rain = 0
KQU1 181541Z 25029KT 16/M01 A2974 RMK A01 T01591009  RH  032%=      5-min Rain = 0
KQU1 181542Z 26025G30KT 16/M01 A2974 RMK A01 T01601008  RH  032%=      5-min Rain = 0
KQU1 181543Z 25026KT 16/M01 A2974 RMK A01 T01601009  RH  032%=      5-min Rain = 0
KQU1 181544Z 25024G30KT 16/M01 A2975 RMK A01 T01601009  RH  031%=      5-min Rain = 0
KQU1 181545Z 26024KT 16/M01 A2975 RMK A01 T01591009  RH  032%=      5-min Rain = 0
KQU1 181546Z 25024G29KT 16/M01 A2975 RMK A01 T01591010  RH  032%=      5-min Rain = 0
KQU1 181547Z 26021G28KT 16/M01 A2975 RMK A01 T01581010  RH  032%=      5-min Rain = 0
KQU1 181548Z 25021KT 16/M01 A2975 RMK A01 T01571011  RH  032%=      5-min Rain = 0
KQU1 181549Z 26024G31KT 16/M01 A2975 RMK A01 T01561012  RH  032%=      5-min Rain = 0
KQU1 181550Z 26024KT 16/M01 A2974 RMK A01 T01561013  RH  032%=      5-min Rain = 0
KQU1 181551Z 25021G26KT 16/M01 A2975 RMK A01 T01551013  RH  032%=      5-min Rain = 0
KQU1 181552Z 25022G27KT 15/M01 A2975 RMK A01 T01541013  RH  032%=      5-min Rain = 0
KQU1 181553Z 25027G33KT 15/M01 A2974 RMK A01 T01531014  RH  032%=      5-min Rain = 0
KQU1 181554Z 25023G28KT 15/M01 A2974 RMK A01 T01521014  RH  032%=      5-min Rain = 0
KQU1 181555Z 25022KT 15/M01 A2974 RMK A01 T01521014  RH  032%=      5-min Rain = 0
KQU1 181556Z 25026G34KT 15/M01 A2974 RMK A01 T01511014  RH  032%=      5-min Rain = 0
KQU1 181557Z 25026G32KT 15/M01 A2974 RMK A01 T01501014  RH  032%=      5-min Rain = 0
KQU1 181558Z 24027G33KT 15/M01 A2974 RMK A01 T01501014  RH  032%=      5-min Rain = 0
KQU1 181559Z 25026G31KT 15/M01 A2974 RMK A01 T01491014  RH  033%=      5-min Rain = 0
KQU1 181600Z 25023KT 15/M01 A2974 RMK A01 T01491014  RH  033%=      5-min Rain = 0
KQU1 181601Z 25022G28KT 15/M01 A2974 RMK A01 T01491013  RH  033%=      5-min Rain = 0
KQU1 181602Z 25024G31KT 15/M01 A2974 RMK A01 T01491013  RH  033%=      5-min Rain = 0
KQU1 181603Z 25025G31KT 15/M01 A2974 RMK A01 T01491014  RH  033%=      5-min Rain = 0
KQU1 181604Z 25022G29KT 15/M01 A2974 RMK A01 T01491013  RH  033%=      5-min Rain = 0
KQU1 181605Z 25024KT 15/M01 A2974 RMK A01 T01491013  RH  033%=      5-min Rain = 0
KQU1 181606Z 25024G32KT 15/M01 A2974 RMK A01 T01481014  RH  033%=      5-min Rain = 0
KQU1 181607Z 25023KT 15/M01 A2974 RMK A01 T01481013  RH  033%=      5-min Rain = 0
KQU1 181608Z 25023G29KT 15/M01 A2974 RMK A01 T01481013  RH  033%=      5-min Rain = 0
KQU1 181609Z 25022G27KT 15/M01 A2974 RMK A01 T01471013  RH  033%=      5-min Rain = 0
KQU1 181610Z 25022G32KT 15/M01 A2974 RMK A01 T01481013  RH  033%=      5-min Rain = 0
KQU1 181611Z 25026KT 15/M01 A2974 RMK A01 T01481013  RH  033%=      5-min Rain = 0
KQU1 181612Z 25023KT 15/M01 A2974 RMK A01 T01471013  RH  033%=      5-min Rain = 0
KQU1 181613Z 25024KT 15/M01 A2974 RMK A01 T01471013  RH  033%=      5-min Rain = 0
KQU1 181614Z 25025G30KT 15/M01 A2974 RMK A01 T01471013  RH  033%=      5-min Rain = 0
KQU1 181615Z 26024G29KT 15/M01 A2974 RMK A01 T01461013  RH  033%=      5-min Rain = 0
KQU1 181616Z 25024G29KT 15/M01 A2974 RMK A01 T01451013  RH  034%=      5-min Rain = 0
KQU1 181617Z 25028KT 14/M01 A2974 RMK A01 T01441013  RH  034%=      5-min Rain = 0
KQU1 181618Z 25020G25KT 14/M01 A2974 RMK A01 T01441012  RH  034%=      5-min Rain = 0
KQU1 181619Z 25020KT 14/M01 A2974 RMK A01 T01431011  RH  035%=      5-min Rain = 0
KQU1 181620Z 25021G27KT 14/M01 A2974 RMK A01 T01421011  RH  035%=      5-min Rain = 0
KQU1 181621Z 25021KT 14/M01 A2973 RMK A01 T01421010  RH  035%=      5-min Rain = 0
KQU1 181622Z 25021G28KT 14/M01 A2973 RMK A01 T01421010  RH  035%=      5-min Rain = 0
KQU1 181623Z 25021KT 14/M01 A2973 RMK A01 T01431009  RH  035%=      5-min Rain = 0
KQU1 181624Z 26022G28KT 14/M01 A2973 RMK A01 T01441009  RH  035%=      5-min Rain = 0
KQU1 181625Z 26021G26KT 15/M01 A2973 RMK A01 T01451009  RH  035%=      5-min Rain = 0
KQU1 181626Z 25023G28KT 15/M01 A2973 RMK A01 T01451009  RH  035%=      5-min Rain = 0
KQU1 181627Z 25024G29KT 15/M01 A2973 RMK A01 T01461008  RH  035%=      5-min Rain = 0
KQU1 181628Z 25023KT 15/M01 A2973 RMK A01 T01471009  RH  034%=      5-min Rain = 0
KQU1 181629Z 26023G30KT 15/M01 A2973 RMK A01 T01471008  RH  034%=      5-min Rain = 0
KQU1 181630Z 26019KT 15/M01 A2973 RMK A01 T01471007  RH  035%=      5-min Rain = 0
KQU1 181631Z 25025G32KT 15/M01 A2973 RMK A01 T01481006  RH  035%=      5-min Rain = 0
KQU1 181632Z 26025KT 15/M01 A2973 RMK A01 T01491005  RH  035%=      5-min Rain = 0
KQU1 181633Z 26019KT 15/M00 A2973 RMK A01 T01511004  RH  035%=      5-min Rain = 0
KQU1 181634Z 26019G24KT 15/M00 A2973 RMK A01 T01531004  RH  034%=      5-min Rain = 0
KQU1 181635Z 26024G31KT 16/M00 A2973 RMK A01 T01551002  RH  034%=      5-min Rain = 0
KQU1 181636Z 26023G30KT 16/M00 A2973 RMK A01 T01561003  RH  034%=      5-min Rain = 0
KQU1 181637Z 25021KT 16/M00 A2973 RMK A01 T01571002  RH  034%=      5-min Rain = 0
KQU1 181638Z 26024G34KT 16/M00 A2972 RMK A01 T01591001  RH  034%=      5-min Rain = 0
KQU1 181639Z 26029KT 16/M00 A2972 RMK A01 T01601001  RH  033%=      5-min Rain = 0
KQU1 181640Z 27019G26KT 16/00 A2973 RMK A01 T01610001  RH  034%=      5-min Rain = 0
KQU1 181641Z 26023G28KT 16/00 A2973 RMK A01 T01620001  RH  033%=      5-min Rain = 0
KQU1 181642Z 26021G29KT 16/00 A2973 RMK A01 T01640002  RH  033%=      5-min Rain = 0
KQU1 181643Z 25020G25KT 17/00 A2972 RMK A01 T01650002  RH  033%=      5-min Rain = 0
KQU1 181644Z 26024G31KT 17/00 A2972 RMK A01 T01680003  RH  033%=      5-min Rain = 0
KQU1 181645Z 26027G32KT 17/00 A2972 RMK A01 T01700003  RH  032%=      5-min Rain = 0
KQU1 181646Z 27029KT 17/00 A2972 RMK A01 T01720004  RH  032%=      5-min Rain = 0
KQU1 181647Z 26022G28KT 17/01 A2972 RMK A01 T01730005  RH  032%=      5-min Rain = 0
KQU1 181648Z 26022KT 18/01 A2972 RMK A01 T01760006  RH  032%=      5-min Rain = 0
KQU1 181649Z 26020G25KT 18/01 A2972 RMK A01 T01790007  RH  031%=      5-min Rain = 0
KQU1 181650Z 26024G32KT 18/01 A2972 RMK A01 T01800006  RH  031%=      5-min Rain = 0
KQU1 181651Z 26030G37KT 18/00 A2972 RMK A01 T01810004  RH  030%=      5-min Rain = 0
KQU1 181652Z 26030KT 18/01 A2972 RMK A01 T01810005  RH  030%=      5-min Rain = 0
KQU1 181653Z 26032KT 18/00 A2971 RMK A01 T01800004  RH  030%=      5-min Rain = 0
KQU1 181654Z 26029G35KT 18/01 A2972 RMK A01 T01810005  RH  031%=      5-min Rain = 0
KQU1 181655Z 27026G38KT 18/01 A2972 RMK A01 T01810005  RH  031%=      5-min Rain = 0
KQU1 181656Z 27023G29KT 18/01 A2972 RMK A01 T01810006  RH  031%=      5-min Rain = 0
KQU1 181657Z 27024G30KT 18/01 A2972 RMK A01 T01820006  RH  031%=      5-min Rain = 0
KQU1 181658Z 27025G31KT 18/01 A2972 RMK A01 T01820006  RH  031%=      5-min Rain = 0
KQU1 181659Z 26022KT 18/01 A2972 RMK A01 T01830007  RH  031%=      5-min Rain = 0
KQU1 181700Z 26023G28KT 18/01 A2971 RMK A01 T01840008  RH  030%=      5-min Rain = 0
KQU1 181701Z 27021G29KT 19/01 A2972 RMK A01 T01860009  RH  030%=      5-min Rain = 0
KQU1 181702Z 26027G33KT 19/01 A2972 RMK A01 T01850008  RH  030%=      5-min Rain = 0
KQU1 181703Z 26026G33KT 19/01 A2971 RMK A01 T01850009  RH  031%=      5-min Rain = 0
KQU1 181704Z 26023G33KT 19/01 A2972 RMK A01 T01860009  RH  030%=      5-min Rain = 0
KQU1 181705Z 26029G34KT 19/01 A2971 RMK A01 T01860007  RH  030%=      5-min Rain = 0
KQU1 181706Z 26030G35KT 19/01 A2971 RMK A01 T01860007  RH  030%=      5-min Rain = 0
KQU1 181707Z 26032G40KT 19/01 A2971 RMK A01 T01860005  RH  030%=      5-min Rain = 0
KQU1 181708Z 27021G30KT 19/01 A2971 RMK A01 T01870007  RH  030%=      5-min Rain = 0
KQU1 181709Z 26033G39KT 19/00 A2971 RMK A01 T01870004  RH  029%=      5-min Rain = 0
KQU1 181710Z 27027KT 19/00 A2971 RMK A01 T01870004  RH  029%=      5-min Rain = 0
KQU1 181711Z 27022KT 19/01 A2971 RMK A01 T01890005  RH  029%=      5-min Rain = 0
KQU1 181712Z 27024G30KT 19/00 A2971 RMK A01 T01890004  RH  029%=      5-min Rain = 0
KQU1 181713Z 26027G34KT 19/00 A2971 RMK A01 T01900004  RH  029%=      5-min Rain = 0
KQU1 181714Z 26031G41KT 19/00 A2971 RMK A01 T01890002  RH  028%=      5-min Rain = 0
KQU1 181715Z 26031G38KT 19/00 A2971 RMK A01 T01890001  RH  028%=      5-min Rain = 0
KQU1 181716Z 27029G35KT 19/00 A2971 RMK A01 T01890001  RH  028%=      5-min Rain = 0
KQU1 181717Z 27029G34KT 19/00 A2971 RMK A01 T01890002  RH  028%=      5-min Rain = 0
KQU1 181718Z 26032G37KT 19/00 A2971 RMK A01 T01890001  RH  028%=      5-min Rain = 0
KQU1 181719Z 27028KT 19/00 A297 RMK A01 T01890001  RH  028%=      5-min Rain = 0
KQU1 181720Z 27023G29KT 19/00 A297 RMK A01 T01890002  RH  028%=      5-min Rain = 0
KQU1 181721Z 26021G27KT 19/00 A297 RMK A01 T01910002  RH  028%=      5-min Rain = 0
KQU1 181722Z 26021G34KT 19/00 A297 RMK A01 T01910003  RH  028%=      5-min Rain = 0
KQU1 181723Z 27030G35KT 19/00 A297 RMK A01 T01920001  RH  028%=      5-min Rain = 0
KQU1 181724Z 27026G33KT 19/00 A297 RMK A01 T01930001  RH  028%=      5-min Rain = 0
KQU1 181725Z 26024KT 19/00 A297 RMK A01 T01930002  RH  028%=      5-min Rain = 0
KQU1 181726Z 25021G28KT 20/00 A297 RMK A01 T01960003  RH  027%=      5-min Rain = 0
KQU1 181727Z 27019G25KT 20/00 A297 RMK A01 T01970002  RH  027%=      5-min Rain = 0
KQU1 181728Z 26024G32KT 20/00 A297 RMK A01 T01980002  RH  027%=      5-min Rain = 0
KQU1 181729Z 25021KT 20/00 A297 RMK A01 T01990001  RH  027%=      5-min Rain = 0
KQU1 181730Z 25029G36KT 20/M00 A297 RMK A01 T01991001  RH  026%=      5-min Rain = 0
KQU1 181731Z 26027G33KT 20/M00 A297 RMK A01 T01991002  RH  026%=      5-min Rain = 0
KQU1 181732Z 25027G36KT 20/M00 A297 RMK A01 T01991002  RH  026%=      5-min Rain = 0
KQU1 181733Z 25029G34KT 20/M00 A297 RMK A01 T01991004  RH  026%=      5-min Rain = 0
KQU1 181734Z 25031G39KT 20/M00 A297 RMK A01 T01991004  RH  025%=      5-min Rain = 0
KQU1 181735Z 25031G39KT 20/M01 A297 RMK A01 T01981006  RH  025%=      5-min Rain = 0
KQU1 181736Z 25031G43KT 20/M01 A2969 RMK A01 T01981005  RH  026%=      5-min Rain = 0
KQU1 181737Z 25033G44KT 20/M01 A297 RMK A01 T01981005  RH  026%=      5-min Rain = 0
KQU1 181738Z 26034G43KT 20/M01 A2969 RMK A01 T01971005  RH  026%=      5-min Rain = 0
KQU1 181739Z 25030G37KT 20/M00 A2969 RMK A01 T01971004  RH  026%=      5-min Rain = 0
KQU1 181740Z 25032G38KT 20/M01 A2969 RMK A01 T01971005  RH  026%=      5-min Rain = 0
KQU1 181741Z 26031KT 20/M01 A2969 RMK A01 T01971005  RH  026%=      5-min Rain = 0
KQU1 181742Z 25025G31KT 20/M00 A2969 RMK A01 T01981003  RH  026%=      5-min Rain = 0
KQU1 181743Z 25032G39KT 20/M01 A2969 RMK A01 T01981005  RH  026%=      5-min Rain = 0
KQU1 181744Z 25027G34KT 20/M00 A2969 RMK A01 T01981004  RH  026%=      5-min Rain = 0
KQU1 181745Z 26031G39KT 20/M00 A2969 RMK A01 T01981004  RH  026%=      5-min Rain = 0
KQU1 181746Z 26029KT 20/M00 A2969 RMK A01 T01981004  RH  026%=      5-min Rain = 0
KQU1 181747Z 26028G35KT 20/M00 A2969 RMK A01 T01981004  RH  026%=      5-min Rain = 0
KQU1 181748Z 26027G33KT 20/M00 A2969 RMK A01 T01991003  RH  026%=      5-min Rain = 0
KQU1 181749Z 25025G33KT 20/M00 A2968 RMK A01 T02001003  RH  026%=      5-min Rain = 0
KQU1 181750Z 25032G37KT 20/M01 A2968 RMK A01 T01991005  RH  025%=      5-min Rain = 0
KQU1 181751Z 25035G40KT 20/M01 A2968 RMK A01 T01981005  RH  025%=      5-min Rain = 0
KQU1 181752Z 26039G44KT 20/M01 A2968 RMK A01 T01971006  RH  026%=      5-min Rain = 0
KQU1 181753Z 26035G43KT 20/M01 A2968 RMK A01 T01961006  RH  026%=      5-min Rain = 0
KQU1 181754Z 26038G45KT 20/M01 A2968 RMK A01 T01961006  RH  026%=      5-min Rain = 0
KQU1 181755Z 26030G37KT 20/M01 A2968 RMK A01 T01951005  RH  026%=      5-min Rain = 0
KQU1 181756Z 26029G36KT 20/M01 A2968 RMK A01 T01961005  RH  026%=      5-min Rain = 0
KQU1 181757Z 26026G33KT 20/M00 A2968 RMK A01 T01971004  RH  026%=      5-min Rain = 0
KQU1 181758Z 26026G32KT 20/M00 A2968 RMK A01 T01991004  RH  026%=      5-min Rain = 0
KQU1 181759Z 26029G37KT 20/M00 A2968 RMK A01 T01991004  RH  026%=      5-min Rain = 0
KQU1 181800Z 26024KT 20/M00 A2968 RMK A01 T01991003  RH  026%=      5-min Rain = 0
KQU1 181801Z 26028G34KT 20/M01 A2968 RMK A01 T01991005  RH  025%=      5-min Rain = 0
KQU1 181802Z 26028G33KT 20/M00 A2968 RMK A01 T01991004  RH  026%=      5-min Rain = 0
KQU1 181803Z 26024KT 20/M00 A2968 RMK A01 T02001003  RH  026%=      5-min Rain = 0
KQU1 181804Z 26025G32KT 20/M00 A2968 RMK A01 T02001003  RH  026%=      5-min Rain = 0
KQU1 181805Z 26022KT 20/M00 A2968 RMK A01 T02011001  RH  026%=      5-min Rain = 0
KQU1 181806Z 26023G28KT 20/M00 A2968 RMK A01 T02021002  RH  025%=      5-min Rain = 0
KQU1 181807Z 25024G34KT 20/M00 A2967 RMK A01 T02041001  RH  025%=      5-min Rain = 0
KQU1 181808Z 25025G34KT 20/M00 A2967 RMK A01 T02041003  RH  025%=      5-min Rain = 0
KQU1 181809Z 24033G39KT 20/M01 A2967 RMK A01 T02031005  RH  025%=      5-min Rain = 0
KQU1 181810Z 25033G39KT 20/M01 A2967 RMK A01 T02021005  RH  025%=      5-min Rain = 0
KQU1 181811Z 25033G42KT 20/M00 A2967 RMK A01 T02001004  RH  025%=      5-min Rain = 0
KQU1 181812Z 26038G47KT 20/M00 A2967 RMK A01 T01991004  RH  026%=      5-min Rain = 0
KQU1 181813Z 25030G35KT 20/M00 A2967 RMK A01 T01981003  RH  026%=      5-min Rain = 0
KQU1 181814Z 26026G33KT 20/M00 A2967 RMK A01 T01991002  RH  026%=      5-min Rain = 0
KQU1 181815Z 25027G37KT 20/M00 A2967 RMK A01 T02001003  RH  026%=      5-min Rain = 0
KQU1 181816Z 25034KT 20/M01 A2966 RMK A01 T01991005  RH  025%=      5-min Rain = 0
KQU1 181817Z 25034G45KT 20/M01 A2966 RMK A01 T01991005  RH  025%=      5-min Rain = 0
KQU1 181818Z 25035G43KT 20/M01 A2966 RMK A01 T01981006  RH  025%=      5-min Rain = 0
KQU1 181819Z 25034G41KT 20/M00 A2966 RMK A01 T01981004  RH  026%=      5-min Rain = 0
KQU1 181820Z 25035G41KT 20/M00 A2966 RMK A01 T01981003  RH  026%=      5-min Rain = 0
KQU1 181821Z 25035G42KT 20/M00 A2966 RMK A01 T01981003  RH  026%=      5-min Rain = 0
KQU1 181822Z 25032G39KT 20/M00 A2966 RMK A01 T01981003  RH  026%=      5-min Rain = 0
KQU1 181823Z 25031G39KT 20/M00 A2966 RMK A01 T01981003  RH  026%=      5-min Rain = 0
KQU1 181824Z 26031G37KT 20/M00 A2966 RMK A01 T01991004  RH  026%=      5-min Rain = 0
KQU1 181825Z 25036KT 20/M01 A2966 RMK A01 T01991005  RH  025%=      5-min Rain = 0
KQU1 181826Z 25033G38KT 20/M01 A2965 RMK A01 T01981005  RH  026%=      5-min Rain = 0
KQU1 181827Z 26029G37KT 20/M00 A2966 RMK A01 T01981004  RH  026%=      5-min Rain = 0
KQU1 181828Z 26023G31KT 20/M00 A2966 RMK A01 T02001001  RH  026%=      5-min Rain = 0
KQU1 181829Z 26028G39KT 20/M00 A2965 RMK A01 T02011003  RH  025%=      5-min Rain = 0
KQU1 181830Z 26031G37KT 20/M00 A2965 RMK A01 T02001004  RH  025%=      5-min Rain = 0
KQU1 181831Z 26031G36KT 20/M00 A2965 RMK A01 T02011004  RH  025%=      5-min Rain = 0
KQU1 181832Z 26033G39KT 20/M01 A2965 RMK A01 T02001005  RH  025%=      5-min Rain = 0
KQU1 181833Z 25028G36KT 20/M00 A2965 RMK A01 T02001004  RH  025%=      5-min Rain = 0
KQU1 181834Z 25024G31KT 20/M00 A2965 RMK A01 T02001003  RH  026%=      5-min Rain = 0
KQU1 181835Z 25022KT 20/M00 A2965 RMK A01 T02031001  RH  025%=      5-min Rain = 0
KQU1 181836Z 25024G29KT 20/M00 A2965 RMK A01 T02041002  RH  025%=      5-min Rain = 0
KQU1 181837Z 25032G43KT 20/M00 A2965 RMK A01 T02041004  RH  025%=      5-min Rain = 0
KQU1 181838Z 25026G36KT 20/M00 A2965 RMK A01 T02031003  RH  025%=      5-min Rain = 0
KQU1 181839Z 25028KT 20/M00 A2965 RMK A01 T02031003  RH  025%=      5-min Rain = 0
KQU1 181840Z 25031KT 20/M00 A2965 RMK A01 T02021004  RH  025%=      5-min Rain = 0
KQU1 181841Z 25031G41KT 20/M00 A2964 RMK A01 T02021003  RH  025%=      5-min Rain = 0
KQU1 181842Z 24033G39KT 20/M00 A2965 RMK A01 T02011004  RH  025%=      5-min Rain = 0
KQU1 181843Z 25031G39KT 20/M00 A2964 RMK A01 T02001004  RH  025%=      5-min Rain = 0
KQU1 181844Z 24034G39KT 20/M00 A2964 RMK A01 T01991004  RH  026%=      5-min Rain = 0
KQU1 181845Z 24032G38KT 20/M00 A2964 RMK A01 T01991004  RH  026%=      5-min Rain = 0
KQU1 181846Z 24029G37KT 20/M00 A2964 RMK A01 T02001003  RH  026%=      5-min Rain = 0
KQU1 181847Z 24033G38KT 20/M00 A2964 RMK A01 T02011004  RH  025%=      5-min Rain = 0
KQU1 181848Z 25030G35KT 20/M00 A2964 RMK A01 T02001004  RH  025%=      5-min Rain = 0
KQU1 181849Z 26031G37KT 20/M00 A2964 RMK A01 T02011003  RH  025%=      5-min Rain = 0
KQU1 181850Z 25028G35KT 20/M00 A2964 RMK A01 T02001003  RH  025%=      5-min Rain = 0
KQU1 181851Z 26030G35KT 20/M00 A2964 RMK A01 T02011003  RH  025%=      5-min Rain = 0
KQU1 181852Z 26033G41KT 20/M01 A2964 RMK A01 T02011005  RH  025%=      5-min Rain = 0
KQU1 181853Z 25033KT 20/M01 A2964 RMK A01 T02001005  RH  025%=      5-min Rain = 0
KQU1 181854Z 25028G34KT 20/M00 A2964 RMK A01 T01991004  RH  026%=      5-min Rain = 0
KQU1 181855Z 26029G36KT 20/M00 A2963 RMK A01 T02001003  RH  026%=      5-min Rain = 0
KQU1 181856Z 26026G33KT 20/M00 A2963 RMK A01 T02011003  RH  026%=      5-min Rain = 0
KQU1 181857Z 25024KT 20/M00 A2963 RMK A01 T02021003  RH  025%=      5-min Rain = 0
KQU1 181858Z 24025G30KT 20/M00 A2963 RMK A01 T02031002  RH  025%=      5-min Rain = 0
KQU1 181859Z 24026G32KT 20/M00 A2963 RMK A01 T02041003  RH  025%=      5-min Rain = 0
KQU1 181900Z 25022G33KT 21/M00 A2963 RMK A01 T02061001  RH  025%=      5-min Rain = 0
KQU1 181901Z 26031G38KT 21/M01 A2963 RMK A01 T02061005  RH  024%=      5-min Rain = 0
KQU1 181902Z 26028G33KT 20/M00 A2963 RMK A01 T02041004  RH  025%=      5-min Rain = 0
KQU1 181903Z 25022G29KT 20/M00 A2963 RMK A01 T02041002  RH  025%=      5-min Rain = 0
KQU1 181904Z 25024KT 20/M00 A2962 RMK A01 T02041002  RH  025%=      5-min Rain = 0
KQU1 181905Z 25024G31KT 21/M00 A2962 RMK A01 T02051003  RH  025%=      5-min Rain = 0
KQU1 181906Z 25028G33KT 21/M00 A2962 RMK A01 T02051004  RH  025%=      5-min Rain = 0
KQU1 181907Z 26032KT 21/M01 A2962 RMK A01 T02051006  RH  024%=      5-min Rain = 0
KQU1 181908Z 25028G36KT 20/M01 A2962 RMK A01 T02041006  RH  025%=      5-min Rain = 0
KQU1 181909Z 26029G34KT 20/M01 A2962 RMK A01 T02031005  RH  025%=      5-min Rain = 0
KQU1 181910Z 26027G32KT 20/M00 A2962 RMK A01 T02041004  RH  025%=      5-min Rain = 0
KQU1 181911Z 25026G34KT 20/M00 A2962 RMK A01 T02041003  RH  025%=      5-min Rain = 0
KQU1 181912Z 25027G34KT 21/M00 A2962 RMK A01 T02061003  RH  025%=      5-min Rain = 0
KQU1 181913Z 25030G37KT 21/M01 A2961 RMK A01 T02051005  RH  024%=      5-min Rain = 0
KQU1 181914Z 26024G29KT 21/M00 A2961 RMK A01 T02051004  RH  025%=      5-min Rain = 0
KQU1 181915Z 24024G31KT 21/M00 A2961 RMK A01 T02071003  RH  024%=      5-min Rain = 0
KQU1 181916Z 25022G28KT 21/M00 A2961 RMK A01 T02091003  RH  024%=      5-min Rain = 0
KQU1 181917Z 25024G30KT 21/M00 A2961 RMK A01 T02081004  RH  024%=      5-min Rain = 0
KQU1 181918Z 25027G33KT 21/M01 A2961 RMK A01 T02081006  RH  024%=      5-min Rain = 0
KQU1 181919Z 26032G39KT 21/M01 A2961 RMK A01 T02061006  RH  024%=      5-min Rain = 0
KQU1 181920Z 25033G39KT 21/M01 A2961 RMK A01 T02061007  RH  024%=      5-min Rain = 0
KQU1 181921Z 26030G35KT 21/M01 A2961 RMK A01 T02061006  RH  024%=      5-min Rain = 0
KQU1 181922Z 25028G34KT 21/M01 A2961 RMK A01 T02061006  RH  024%=      5-min Rain = 0
KQU1 181923Z 25024G34KT 21/M01 A2961 RMK A01 T02071006  RH  024%=      5-min Rain = 0
KQU1 181924Z 26031G38KT 21/M01 A2961 RMK A01 T02081010  RH  023%=      5-min Rain = 0
KQU1 181925Z 25029G34KT 21/M01 A2961 RMK A01 T02081010  RH  023%=      5-min Rain = 0
KQU1 181926Z 25029G35KT 21/M01 A296 RMK A01 T02071014  RH  023%=      5-min Rain = 0
KQU1 181927Z 25033G40KT 21/M02 A296 RMK A01 T02071015  RH  022%=      5-min Rain = 0
KQU1 181928Z 25023G28KT 21/M01 A296 RMK A01 T02061014  RH  023%=      5-min Rain = 0
KQU1 181929Z 27027G36KT 21/M01 A296 RMK A01 T02071014  RH  023%=      5-min Rain = 0
KQU1 181930Z 26028KT 21/M01 A296 RMK A01 T02061013  RH  023%=      5-min Rain = 0
KQU1 181931Z 25025G30KT 21/M01 A296 RMK A01 T02071011  RH  023%=      5-min Rain = 0
KQU1 181932Z 26026G31KT 21/M01 A296 RMK A01 T02081010  RH  023%=      5-min Rain = 0
KQU1 181933Z 25027G33KT 21/M01 A2959 RMK A01 T02091012  RH  023%=      5-min Rain = 0
KQU1 181934Z 25029G37KT 21/M01 A2959 RMK A01 T02091013  RH  023%=      5-min Rain = 0
KQU1 181935Z 25028G35KT 21/M02 A2959 RMK A01 T02081015  RH  022%=      5-min Rain = 0
KQU1 181936Z 24034G44KT 21/M01 A2959 RMK A01 T02081014  RH  023%=      5-min Rain = 0
KQU1 181937Z 25034G42KT 21/M02 A2958 RMK A01 T02071016  RH  022%=      5-min Rain = 0
KQU1 181938Z 25031G40KT 21/M01 A2959 RMK A01 T02071014  RH  023%=      5-min Rain = 0
KQU1 181939Z 26027G33KT 21/M01 A2959 RMK A01 T02081012  RH  023%=      5-min Rain = 0
KQU1 181940Z 25030G35KT 21/M01 A2959 RMK A01 T02071011  RH  023%=      5-min Rain = 0
KQU1 181941Z 26027G32KT 21/M01 A2959 RMK A01 T02071011  RH  023%=      5-min Rain = 0
KQU1 181942Z 26025G31KT 21/M01 A2959 RMK A01 T02081010  RH  023%=      5-min Rain = 0
KQU1 181943Z 27022G29KT 21/M01 A2959 RMK A01 T02091007  RH  023%=      5-min Rain = 0
KQU1 181944Z 27028G35KT 21/M00 A2959 RMK A01 T02091004  RH  024%=      5-min Rain = 0
KQU1 181945Z 26029G41KT 21/M00 A2959 RMK A01 T02081002  RH  025%=      5-min Rain = 0
KQU1 181946Z 25027G32KT 21/M00 A2959 RMK A01 T02071002  RH  025%=      5-min Rain = 0
KQU1 181947Z 24032G39KT 21/M00 A2958 RMK A01 T02071001  RH  025%=      5-min Rain = 0
KQU1 181948Z 26029G39KT 21/M00 A2959 RMK A01 T02071001  RH  025%=      5-min Rain = 0
KQU1 181949Z 27027G36KT 21/00 A2959 RMK A01 T020600-0  RH  025%=      5-min Rain = 0
KQU1 181950Z 28033G39KT 21/M00 A2958 RMK A01 T02051003  RH  025%=      5-min Rain = 0
KQU1 181951Z 27026G33KT 21/M00 A2958 RMK A01 T02051001  RH  025%=      5-min Rain = 0
KQU1 181952Z 27025G30KT 21/00 A2959 RMK A01 T02060000  RH  025%=      5-min Rain = 0
KQU1 181953Z 26026G33KT 21/00 A2959 RMK A01 T02060001  RH  025%=      5-min Rain = 0
KQU1 181954Z 27026G32KT 21/00 A2959 RMK A01 T02060002  RH  026%=      5-min Rain = 0
KQU1 181955Z 25021G27KT 21/00 A2959 RMK A01 T02070004  RH  026%=      5-min Rain = 0
KQU1 181956Z 24033G39KT 21/00 A2959 RMK A01 T020800-0  RH  025%=      5-min Rain = 0
KQU1 181957Z 25034G40KT 21/M00 A2959 RMK A01 T02071001  RH  025%=      5-min Rain = 0
KQU1 181958Z 25035G43KT 21/00 A2959 RMK A01 T02060001  RH  025%=      5-min Rain = 0
KQU1 181959Z 25031G38KT 20/00 A2959 RMK A01 T02040002  RH  026%=      5-min Rain = 0
KQU1 182000Z 25024KT 21/00 A2959 RMK A01 T02060004  RH  026%=      5-min Rain = 0
KQU1 182001Z 26029G36KT 21/00 A2959 RMK A01 T02070003  RH  026%=      5-min Rain = 0
KQU1 182002Z 26032G39KT 21/00 A2959 RMK A01 T02050002  RH  026%=      5-min Rain = 0
KQU1 182003Z 26030G37KT 20/00 A2959 RMK A01 T02020002  RH  026%=      5-min Rain = 0
KQU1 182004Z 26028G35KT 20/00 A2959 RMK A01 T02020002  RH  026%=      5-min Rain = 0
KQU1 182005Z 26027G33KT 20/00 A2959 RMK A01 T02040002  RH  026%=      5-min Rain = 0
KQU1 182006Z 26027G37KT 21/00 A2959 RMK A01 T02050001  RH  026%=      5-min Rain = 0
KQU1 182007Z 25028G34KT 21/00 A2959 RMK A01 T02050001  RH  025%=      5-min Rain = 0
KQU1 182008Z 25027G36KT 21/00 A2959 RMK A01 T02050000  RH  025%=      5-min Rain = 0
KQU1 182009Z 25031G38KT 21/M00 A2959 RMK A01 T02051003  RH  025%=      5-min Rain = 0
KQU1 182010Z 25031G37KT 21/M01 A2959 RMK A01 T02061005  RH  024%=      5-min Rain = 0
KQU1 182011Z 26031KT 21/M01 A2959 RMK A01 T02051009  RH  024%=      5-min Rain = 0
KQU1 182012Z 25031G38KT 20/M01 A2959 RMK A01 T02041009  RH  024%=      5-min Rain = 0
KQU1 182013Z 25028G33KT 20/M01 A2959 RMK A01 T02041009  RH  024%=      5-min Rain = 0
KQU1 182014Z 25028G34KT 21/M01 A2959 RMK A01 T02051009  RH  024%=      5-min Rain = 0
KQU1 182015Z 25030G37KT 21/M01 A2959 RMK A01 T02051010  RH  024%=      5-min Rain = 0
KQU1 182016Z 25034G40KT 21/M01 A2958 RMK A01 T02051011  RH  023%=      5-min Rain = 0
KQU1 182017Z 25033G38KT 21/M01 A2958 RMK A01 T02051011  RH  023%=      5-min Rain = 0
KQU1 182018Z 26026KT 21/M01 A2958 RMK A01 T02051011  RH  023%=      5-min Rain = 0
KQU1 182019Z 25026KT 21/M01 A2958 RMK A01 T02061011  RH  023%=      5-min Rain = 0
KQU1 182020Z 25033G40KT 21/M01 A2958 RMK A01 T02061012  RH  023%=      5-min Rain = 0
KQU1 182021Z 25029G37KT 21/M01 A2958 RMK A01 T02051012  RH  023%=      5-min Rain = 0
KQU1 182022Z 25031G39KT 21/M02 A2958 RMK A01 T02051015  RH  023%=      5-min Rain = 0
KQU1 182023Z 26029G37KT 21/M02 A2958 RMK A01 T02051017  RH  022%=      5-min Rain = 0
KQU1 182024Z 25028KT 21/M02 A2958 RMK A01 T02051017  RH  022%=      5-min Rain = 0
KQU1 182025Z 26025G30KT 21/M01 A2958 RMK A01 T02061014  RH  023%=      5-min Rain = 0
KQU1 182026Z 26026G33KT 21/M01 A2959 RMK A01 T02071012  RH  023%=      5-min Rain = 0
KQU1 182027Z 27030G35KT 21/M01 A2958 RMK A01 T02071014  RH  023%=      5-min Rain = 0
KQU1 182028Z 25024G29KT 21/M01 A2959 RMK A01 T02061014  RH  023%=      5-min Rain = 0
KQU1 182029Z 26025G31KT 21/M01 A2958 RMK A01 T02071013  RH  023%=      5-min Rain = 0
KQU1 182030Z 26027KT 21/M01 A2958 RMK A01 T02071013  RH  023%=      5-min Rain = 0
KQU1 182031Z 26032G37KT 21/M02 A2958 RMK A01 T02061015  RH  023%=      5-min Rain = 0
KQU1 182032Z 26027G33KT 21/M02 A2958 RMK A01 T02051015  RH  023%=      5-min Rain = 0
KQU1 182033Z 25025G33KT 21/M01 A2958 RMK A01 T02061013  RH  023%=      5-min Rain = 0
KQU1 182034Z 25026KT 21/M01 A2958 RMK A01 T02071014  RH  023%=      5-min Rain = 0
KQU1 182035Z 26026KT 21/M01 A2958 RMK A01 T02081013  RH  023%=      5-min Rain = 0
KQU1 182036Z 27021KT 21/M01 A2958 RMK A01 T02091013  RH  022%=      5-min Rain = 0
KQU1 182037Z 28027G37KT 21/M02 A2958 RMK A01 T02091015  RH  022%=      5-min Rain = 0
KQU1 182038Z 27023G29KT 21/M01 A2958 RMK A01 T02081012  RH  023%=      5-min Rain = 0
KQU1 182039Z 26029G35KT 21/M01 A2958 RMK A01 T02071014  RH  023%=      5-min Rain = 0
KQU1 182040Z 26028G34KT 21/M02 A2958 RMK A01 T02081015  RH  022%=      5-min Rain = 0
KQU1 182041Z 26026G32KT 21/M02 A2958 RMK A01 T02071016  RH  022%=      5-min Rain = 0
KQU1 182042Z 26025G32KT 21/M02 A2959 RMK A01 T02071015  RH  022%=      5-min Rain = 0
KQU1 182043Z 26025G32KT 21/M02 A2958 RMK A01 T02071016  RH  022%=      5-min Rain = 0
KQU1 182044Z 26023G28KT 21/M02 A2958 RMK A01 T02081015  RH  022%=      5-min Rain = 0
KQU1 182045Z 25026G34KT 21/M02 A2958 RMK A01 T02081016  RH  022%=      5-min Rain = 0
KQU1 182046Z 26024G30KT 21/M02 A2958 RMK A01 T02081015  RH  022%=      5-min Rain = 0
KQU1 182047Z 27030G38KT 21/M02 A2958 RMK A01 T02081016  RH  022%=      5-min Rain = 0
KQU1 182048Z 26028G33KT 21/M02 A2958 RMK A01 T02061016  RH  022%=      5-min Rain = 0
KQU1 182049Z 27022KT 21/M01 A2958 RMK A01 T02051013  RH  023%=      5-min Rain = 0
KQU1 182050Z 26026G35KT 21/M01 A2958 RMK A01 T02061013  RH  023%=      5-min Rain = 0
KQU1 182051Z 25022G28KT 21/M01 A2959 RMK A01 T02071011  RH  023%=      5-min Rain = 0
KQU1 182052Z 26022G28KT 21/M01 A2958 RMK A01 T02081012  RH  023%=      5-min Rain = 0
KQU1 182053Z 26023G29KT 21/M01 A2958 RMK A01 T02081011  RH  023%=      5-min Rain = 0
KQU1 182054Z 25028KT 21/M01 A2958 RMK A01 T02071012  RH  023%=      5-min Rain = 0
KQU1 182055Z 26022G27KT 21/M01 A2958 RMK A01 T02061010  RH  023%=      5-min Rain = 0
KQU1 182056Z 27019KT 21/M01 A2958 RMK A01 T02071010  RH  023%=      5-min Rain = 0
KQU1 182057Z 27019G25KT 21/M01 A2958 RMK A01 T02081011  RH  023%=      5-min Rain = 0
KQU1 182058Z 25024G32KT 21/M01 A2958 RMK A01 T02091011  RH  023%=      5-min Rain = 0
KQU1 182059Z 25031G39KT 21/M01 A2958 RMK A01 T02071013  RH  023%=      5-min Rain = 0
KQU1 182100Z 26030G39KT 20/M01 A2958 RMK A01 T02041013  RH  023%=      5-min Rain = 0
KQU1 182101Z 26021G27KT 20/M01 A2958 RMK A01 T02031012  RH  024%=      5-min Rain = 0
KQU1 182102Z 26021G26KT 20/M01 A2958 RMK A01 T02031010  RH  024%=      5-min Rain = 0
KQU1 182103Z 25026G31KT 20/M01 A2958 RMK A01 T02021011  RH  024%=      5-min Rain = 0
KQU1 182104Z 25028G33KT 20/M01 A2958 RMK A01 T02021011  RH  024%=      5-min Rain = 0
KQU1 182105Z 25025G30KT 20/M01 A2958 RMK A01 T02021010  RH  024%=      5-min Rain = 0
KQU1 182106Z 24024G29KT 20/M01 A2958 RMK A01 T02021009  RH  024%=      5-min Rain = 0
KQU1 182107Z 24022G29KT 20/M01 A2959 RMK A01 T02031007  RH  024%=      5-min Rain = 0
KQU1 182108Z 25021G26KT 20/M01 A2959 RMK A01 T02041007  RH  024%=      5-min Rain = 0
KQU1 182109Z 25023G32KT 20/M01 A2959 RMK A01 T02041008  RH  024%=      5-min Rain = 0
KQU1 182110Z 25026G33KT 20/M01 A2959 RMK A01 T02031009  RH  024%=      5-min Rain = 0
KQU1 182111Z 25027KT 20/M01 A2959 RMK A01 T02011010  RH  024%=      5-min Rain = 0
KQU1 182112Z 25023G29KT 20/M01 A2959 RMK A01 T02001009  RH  024%=      5-min Rain = 0
KQU1 182113Z 25025G33KT 20/M01 A2959 RMK A01 T02001009  RH  024%=      5-min Rain = 0
KQU1 182114Z 26024G29KT 20/M01 A2959 RMK A01 T01981010  RH  025%=      5-min Rain = 0
KQU1 182115Z 26027G32KT 20/M01 A2959 RMK A01 T01971010  RH  025%=      5-min Rain = 0
KQU1 182116Z 26024G29KT 20/M01 A2959 RMK A01 T01961009  RH  025%=      5-min Rain = 0
KQU1 182117Z 26025KT 20/M01 A2959 RMK A01 T01961008  RH  025%=      5-min Rain = 0
KQU1 182118Z 25026KT 20/M01 A2959 RMK A01 T01951010  RH  025%=      5-min Rain = 0
KQU1 182119Z 26022KT 20/M01 A2959 RMK A01 T01951009  RH  025%=      5-min Rain = 0
KQU1 182120Z 24019G25KT 20/M01 A2959 RMK A01 T01951008  RH  025%=      5-min Rain = 0
KQU1 182121Z 25025G32KT 20/M01 A2959 RMK A01 T01951010  RH  025%=      5-min Rain = 0
KQU1 182122Z 24024KT 19/M01 A2959 RMK A01 T01941010  RH  025%=      5-min Rain = 0
KQU1 182123Z 24023KT 19/M01 A2959 RMK A01 T01941010  RH  025%=      5-min Rain = 0
KQU1 182124Z 25024G30KT 19/M01 A2959 RMK A01 T01941009  RH  025%=      5-min Rain = 0
KQU1 182125Z 25025G32KT 19/M01 A2959 RMK A01 T01931009  RH  026%=      5-min Rain = 0
KQU1 182126Z 26024G29KT 19/M01 A2959 RMK A01 T01931009  RH  026%=      5-min Rain = 0
KQU1 182127Z 25019KT 19/M01 A2959 RMK A01 T01931009  RH  026%=      5-min Rain = 0
KQU1 182128Z 25021KT 19/M01 A2959 RMK A01 T01921009  RH  026%=      5-min Rain = 0
KQU1 182129Z 24022KT 19/M01 A2959 RMK A01 T01921010  RH  026%=      5-min Rain = 0
KQU1 182130Z 24023G32KT 19/M01 A296 RMK A01 T01911009  RH  026%=      5-min Rain = 0
KQU1 182131Z 24026KT 19/M01 A2959 RMK A01 T01911008  RH  026%=      5-min Rain = 0
KQU1 182132Z 25023KT 19/M01 A296 RMK A01 T01901008  RH  026%=      5-min Rain = 0
KQU1 182133Z 25018KT 19/M01 A296 RMK A01 T01901008  RH  026%=      5-min Rain = 0
KQU1 182134Z 24022G28KT 19/M01 A296 RMK A01 T01901007  RH  026%=      5-min Rain = 0
KQU1 182135Z 25019G24KT 19/M01 A296 RMK A01 T01901006  RH  027%=      5-min Rain = 0
KQU1 182136Z 25025KT 19/M01 A2959 RMK A01 T01891006  RH  027%=      5-min Rain = 0
KQU1 182137Z 25021KT 19/M01 A296 RMK A01 T01901005  RH  027%=      5-min Rain = 0
KQU1 182138Z 25025G33KT 19/M01 A296 RMK A01 T01911005  RH  027%=      5-min Rain = 0
KQU1 182139Z 25026KT 19/M01 A2959 RMK A01 T01921006  RH  026%=      5-min Rain = 0
KQU1 182140Z 25020G29KT 19/M01 A2959 RMK A01 T01921006  RH  026%=      5-min Rain = 0
KQU1 182141Z 24021G27KT 19/M01 A2959 RMK A01 T01921006  RH  026%=      5-min Rain = 0
KQU1 182142Z 25022G27KT 19/M01 A2959 RMK A01 T01921006  RH  026%=      5-min Rain = 0
KQU1 182143Z 25021KT 19/M01 A2959 RMK A01 T01931005  RH  026%=      5-min Rain = 0
KQU1 182144Z 25022G28KT 19/M01 A2959 RMK A01 T01941006  RH  026%=      5-min Rain = 0
KQU1 182145Z 24026G31KT 19/M01 A2959 RMK A01 T01941007  RH  026%=      5-min Rain = 0
KQU1 182146Z 25023G29KT 19/M01 A2959 RMK A01 T01931007  RH  026%=      5-min Rain = 0
KQU1 182147Z 25019G26KT 19/M01 A2959 RMK A01 T01941005  RH  026%=      5-min Rain = 0
KQU1 182148Z 25022KT 20/M01 A2959 RMK A01 T01951007  RH  026%=      5-min Rain = 0
KQU1 182149Z 25023G28KT 20/M01 A2959 RMK A01 T01951008  RH  025%=      5-min Rain = 0
KQU1 182150Z 25025G37KT 19/M01 A2959 RMK A01 T01941009  RH  025%=      5-min Rain = 0
KQU1 182151Z 24028KT 19/M01 A2959 RMK A01 T01931010  RH  025%=      5-min Rain = 0
KQU1 182152Z 24028G35KT 19/M01 A2959 RMK A01 T01921010  RH  026%=      5-min Rain = 0
KQU1 182153Z 24027G32KT 19/M01 A2959 RMK A01 T01921009  RH  026%=      5-min Rain = 0
KQU1 182154Z 25024G29KT 19/M01 A2959 RMK A01 T01911009  RH  026%=      5-min Rain = 0
KQU1 182155Z 25027G32KT 19/M01 A2959 RMK A01 T01911008  RH  026%=      5-min Rain = 0
KQU1 182156Z 25023G30KT 19/M01 A2959 RMK A01 T01911008  RH  026%=      5-min Rain = 0
KQU1 182157Z 25021KT 19/M01 A2959 RMK A01 T01911008  RH  026%=      5-min Rain = 0
KQU1 182158Z 26023KT 19/M01 A2959 RMK A01 T01911008  RH  026%=      5-min Rain = 0
KQU1 182159Z 25025G30KT 19/M01 A2959 RMK A01 T01901009  RH  026%=      5-min Rain = 0
KQU1 182200Z 25023KT 19/M01 A296 RMK A01 T01901009  RH  026%=      5-min Rain = 0
KQU1 182201Z 25025G30KT 19/M01 A296 RMK A01 T01901009  RH  026%=      5-min Rain = 0
KQU1 182202Z 26023G29KT 19/M01 A296 RMK A01 T01921010  RH  026%=      5-min Rain = 0
KQU1 182203Z 26021G26KT 19/M01 A296 RMK A01 T01931009  RH  026%=      5-min Rain = 0
KQU1 182204Z 26026G31KT 19/M01 A296 RMK A01 T01941010  RH  025%=      5-min Rain = 0
KQU1 182205Z 26025G30KT 20/M01 A296 RMK A01 T01951009  RH  025%=      5-min Rain = 0
KQU1 182206Z 26023G30KT 20/M01 A296 RMK A01 T01951010  RH  025%=      5-min Rain = 0
KQU1 182207Z 24023G28KT 20/M01 A296 RMK A01 T01961009  RH  025%=      5-min Rain = 0
KQU1 182208Z 25028KT 20/M01 A296 RMK A01 T01951010  RH  025%=      5-min Rain = 0
KQU1 182209Z 24024G31KT 20/M01 A296 RMK A01 T01951010  RH  025%=      5-min Rain = 0
KQU1 182210Z 25022KT 20/M01 A296 RMK A01 T01951010  RH  025%=      5-min Rain = 0
KQU1 182211Z 25023G28KT 20/M01 A296 RMK A01 T01961010  RH  025%=      5-min Rain = 0
KQU1 182212Z 25020KT 20/M01 A296 RMK A01 T01951011  RH  025%=      5-min Rain = 0
KQU1 182213Z 25021G28KT 20/M01 A296 RMK A01 T01951012  RH  025%=      5-min Rain = 0
KQU1 182214Z 24021G33KT 20/M01 A296 RMK A01 T01961011  RH  025%=      5-min Rain = 0
KQU1 182215Z 25023G31KT 20/M01 A296 RMK A01 T01961012  RH  025%=      5-min Rain = 0
KQU1 182216Z 25023G28KT 20/M01 A296 RMK A01 T01961012  RH  025%=      5-min Rain = 0
KQU1 182217Z 26021KT 20/M01 A296 RMK A01 T01961011  RH  025%=      5-min Rain = 0
KQU1 182218Z 26026KT 20/M01 A296 RMK A01 T01961012  RH  024%=      5-min Rain = 0
KQU1 182219Z 25023KT 20/M01 A296 RMK A01 T01951012  RH  025%=      5-min Rain = 0
KQU1 182220Z 26025G31KT 19/M01 A296 RMK A01 T01941013  RH  025%=      5-min Rain = 0
KQU1 182221Z 26028KT 19/M01 A296 RMK A01 T01921014  RH  025%=      5-min Rain = 0
KQU1 182222Z 25024G29KT 19/M01 A296 RMK A01 T01911014  RH  025%=      5-min Rain = 0
KQU1 182223Z 25022G28KT 19/M01 A2961 RMK A01 T01901014  RH  025%=      5-min Rain = 0
KQU1 182224Z 24021KT 19/M01 A2961 RMK A01 T01891014  RH  025%=      5-min Rain = 0
KQU1 182225Z 25020G25KT 19/M01 A2961 RMK A01 T01881014  RH  025%=      5-min Rain = 0
KQU1 182226Z 26023KT 19/M01 A296 RMK A01 T01871014  RH  026%=      5-min Rain = 0
KQU1 182227Z 26021KT 19/M01 A2961 RMK A01 T01871014  RH  026%=      5-min Rain = 0
KQU1 182228Z 25022G27KT 19/M01 A296 RMK A01 T01861014  RH  026%=      5-min Rain = 0
KQU1 182229Z 26024G29KT 19/M01 A296 RMK A01 T01861014  RH  026%=      5-min Rain = 0
KQU1 182230Z 25021G27KT 19/M02 A296 RMK A01 T01851015  RH  026%=      5-min Rain = 0
KQU1 182231Z 25023KT 19/M02 A296 RMK A01 T01851015  RH  026%=      5-min Rain = 0
KQU1 182232Z 25024G29KT 19/M02 A296 RMK A01 T01851015  RH  026%=      5-min Rain = 0
KQU1 182233Z 25016KT 18/M01 A296 RMK A01 T01841014  RH  026%=      5-min Rain = 0
KQU1 182234Z 25022G28KT 18/M01 A296 RMK A01 T01841014  RH  026%=      5-min Rain = 0
KQU1 182235Z 25023KT 18/M01 A296 RMK A01 T01841014  RH  026%=      5-min Rain = 0
KQU1 182236Z 26020KT 18/M01 A296 RMK A01 T01831013  RH  026%=      5-min Rain = 0
KQU1 182237Z 25020G27KT 18/M01 A2961 RMK A01 T01831013  RH  026%=      5-min Rain = 0
KQU1 182238Z 25023KT 18/M01 A296 RMK A01 T01831013  RH  027%=      5-min Rain = 0
KQU1 182239Z 25020KT 18/M01 A296 RMK A01 T01831012  RH  027%=      5-min Rain = 0
KQU1 182240Z 25017KT 18/M01 A2961 RMK A01 T01821012  RH  027%=      5-min Rain = 0
KQU1 182241Z 25021G29KT 18/M01 A2961 RMK A01 T01821011  RH  027%=      5-min Rain = 0
KQU1 182242Z 25023KT 18/M01 A2961 RMK A01 T01821011  RH  027%=      5-min Rain = 0
KQU1 182243Z 25020G25KT 18/M01 A2961 RMK A01 T01821011  RH  027%=      5-min Rain = 0
KQU1 182244Z 25022KT 18/M01 A2961 RMK A01 T01821011  RH  027%=      5-min Rain = 0
KQU1 182245Z 25021G26KT 18/M01 A2961 RMK A01 T01821010  RH  027%=      5-min Rain = 0
KQU1 182246Z 25019G24KT 18/M01 A2961 RMK A01 T01811010  RH  027%=      5-min Rain = 0
KQU1 182247Z 25021KT 18/M01 A2961 RMK A01 T01811010  RH  027%=      5-min Rain = 0
KQU1 182248Z 26022G27KT 18/M01 A2961 RMK A01 T01811010  RH  027%=      5-min Rain = 0
KQU1 182249Z 26025KT 18/M01 A296 RMK A01 T01811010  RH  027%=      5-min Rain = 0
KQU1 182250Z 26021G26KT 18/M01 A2961 RMK A01 T01811009  RH  028%=      5-min Rain = 0
KQU1 182251Z 25019G25KT 18/M01 A2961 RMK A01 T01801009  RH  028%=      5-min Rain = 0
KQU1 182252Z 26021KT 18/M01 A2961 RMK A01 T01801009  RH  028%=      5-min Rain = 0
KQU1 182253Z 26022KT 18/M01 A2961 RMK A01 T01801008  RH  028%=      5-min Rain = 0
KQU1 182254Z 25022KT 18/M01 A2961 RMK A01 T01791007  RH  028%=      5-min Rain = 0
KQU1 182255Z 25018KT 18/M01 A2961 RMK A01 T01791007  RH  028%=      5-min Rain = 0
KQU1 182256Z 26020G25KT 18/M01 A2961 RMK A01 T01781006  RH  029%=      5-min Rain = 0
KQU1 182257Z 25019G24KT 18/M01 A2961 RMK A01 T01781006  RH  029%=      5-min Rain = 0
KQU1 182258Z 25017G23KT 18/M01 A2961 RMK A01 T01771005  RH  029%=      5-min Rain = 0
KQU1 182259Z 25022KT 18/M01 A2961 RMK A01 T01771005  RH  029%=      5-min Rain = 0
KQU1 182300Z 25021KT 18/M01 A2961 RMK A01 T01771005  RH  029%=      5-min Rain = 0
KQU1 182301Z 25019KT 18/M00 A2961 RMK A01 T01771004  RH  029%=      5-min Rain = 0
KQU1 182302Z 26021KT 18/M00 A2961 RMK A01 T01771004  RH  029%=      5-min Rain = 0
KQU1 182303Z 26020G25KT 18/M00 A2961 RMK A01 T01761004  RH  029%=      5-min Rain = 0
KQU1 182304Z 25020G25KT 18/M00 A2961 RMK A01 T01761004  RH  030%=      5-min Rain = 0
KQU1 182305Z 26019KT 18/M00 A2961 RMK A01 T01761004  RH  030%=      5-min Rain = 0
KQU1 182306Z 25019G24KT 18/M00 A2961 RMK A01 T01761004  RH  030%=      5-min Rain = 0
KQU1 182307Z 25020G25KT 18/M00 A2961 RMK A01 T01751004  RH  030%=      5-min Rain = 0
KQU1 182308Z 26019KT 18/M01 A2961 RMK A01 T01751005  RH  030%=      5-min Rain = 0
KQU1 182309Z 26022KT 18/M01 A2961 RMK A01 T01751006  RH  029%=      5-min Rain = 0
KQU1 182310Z 25017KT 18/M01 A2961 RMK A01 T01751006  RH  029%=      5-min Rain = 0
KQU1 182311Z 26017KT 17/M01 A2961 RMK A01 T01741007  RH  029%=      5-min Rain = 0
KQU1 182312Z 26015KT 17/M01 A2961 RMK A01 T01741006  RH  029%=      5-min Rain = 0
KQU1 182313Z 27016KT 17/M01 A2961 RMK A01 T01731006  RH  030%=      5-min Rain = 0
KQU1 182314Z 26015KT 17/M01 A2961 RMK A01 T01731007  RH  029%=      5-min Rain = 0
KQU1 182315Z 26015G20KT 17/M01 A2961 RMK A01 T01731008  RH  029%=      5-min Rain = 0
KQU1 182316Z 26017G23KT 17/M01 A2961 RMK A01 T01721009  RH  029%=      5-min Rain = 0
KQU1 182317Z 26017G22KT 17/M01 A2961 RMK A01 T01721010  RH  029%=      5-min Rain = 0
KQU1 182318Z 26015KT 17/M01 A2961 RMK A01 T01721010  RH  029%=      5-min Rain = 0
KQU1 182319Z 26017KT 17/M01 A2961 RMK A01 T01721011  RH  029%=      5-min Rain = 0
KQU1 182320Z 26015KT 17/M01 A2961 RMK A01 T01721011  RH  029%=      5-min Rain = 0
KQU1 182321Z 26014KT 17/M01 A2961 RMK A01 T01721011  RH  029%=      5-min Rain = 0
KQU1 182322Z 26016KT 17/M01 A2961 RMK A01 T01711011  RH  029%=      5-min Rain = 0
KQU1 182323Z 26015KT 17/M01 A2961 RMK A01 T01711012  RH  029%=      5-min Rain = 0
KQU1 182324Z 26018KT 17/M01 A2961 RMK A01 T01711013  RH  029%=      5-min Rain = 0
KQU1 182325Z 27017KT 17/M01 A2961 RMK A01 T01711013  RH  028%=      5-min Rain = 0
KQU1 182326Z 25018KT 17/M01 A2961 RMK A01 T01711014  RH  028%=      5-min Rain = 0
KQU1 182327Z 26021KT 17/M02 A2961 RMK A01 T01711015  RH  028%=      5-min Rain = 0
KQU1 182328Z 25017KT 17/M02 A2962 RMK A01 T01711016  RH  028%=      5-min Rain = 0
KQU1 182329Z 26013KT 17/M02 A2962 RMK A01 T01711015  RH  028%=      5-min Rain = 0
KQU1 182330Z 26013KT 17/M02 A2962 RMK A01 T01711015  RH  028%=      5-min Rain = 0
KQU1 182331Z 26016KT 17/M02 A2962 RMK A01 T01701017  RH  028%=      5-min Rain = 0
KQU1 182332Z 26019KT 17/M02 A2962 RMK A01 T01711019  RH  027%=      5-min Rain = 0
KQU1 182333Z 26016G21KT 17/M02 A2962 RMK A01 T01701020  RH  027%=      5-min Rain = 0
KQU1 182334Z 25017KT 17/M02 A2962 RMK A01 T01701021  RH  027%=      5-min Rain = 0
KQU1 182335Z 26014KT 17/M02 A2962 RMK A01 T01701021  RH  027%=      5-min Rain = 0
KQU1 182336Z 26018G24KT 17/M02 A2962 RMK A01 T01701023  RH  027%=      5-min Rain = 0
KQU1 182337Z 26018KT 17/M02 A2962 RMK A01 T01701024  RH  027%=      5-min Rain = 0
KQU1 182338Z 26016G21KT 17/M03 A2962 RMK A01 T01701025  RH  026%=      5-min Rain = 0
KQU1 182339Z 26016KT 17/M03 A2962 RMK A01 T01701026  RH  026%=      5-min Rain = 0
KQU1 182340Z 25019G24KT 17/M03 A2962 RMK A01 T01701026  RH  026%=      5-min Rain = 0
KQU1 182341Z 25018G23KT 17/M03 A2962 RMK A01 T01701028  RH  026%=      5-min Rain = 0
KQU1 182342Z 26017KT 17/M03 A2962 RMK A01 T01711028  RH  026%=      5-min Rain = 0
KQU1 182343Z 25015KT 17/M03 A2962 RMK A01 T01711028  RH  026%=      5-min Rain = 0
KQU1 182344Z 25014KT 17/M03 A2962 RMK A01 T01701028  RH  026%=      5-min Rain = 0
KQU1 182345Z 26015KT 17/M03 A2962 RMK A01 T01701028  RH  026%=      5-min Rain = 0
KQU1 182346Z 26015KT 17/M03 A2962 RMK A01 T01701028  RH  026%=      5-min Rain = 0
KQU1 182347Z 26016KT 17/M03 A2962 RMK A01 T01691028  RH  026%=      5-min Rain = 0
KQU1 182348Z 27016KT 17/M03 A2962 RMK A01 T01691029  RH  026%=      5-min Rain = 0
KQU1 182349Z 28017KT 17/M03 A2962 RMK A01 T01691031  RH  025%=      5-min Rain = 0
KQU1 182350Z 27015KT 17/M03 A2962 RMK A01 T01691032  RH  025%=      5-min Rain = 0
KQU1 182351Z 27015G22KT 17/M03 A2962 RMK A01 T01681032  RH  025%=      5-min Rain = 0
KQU1 182352Z 28014KT 17/M03 A2962 RMK A01 T01681032  RH  025%=      5-min Rain = 0
KQU1 182353Z 27013KT 17/M03 A2962 RMK A01 T01681033  RH  025%=      5-min Rain = 0
KQU1 182354Z 27015KT 17/M03 A2962 RMK A01 T01681034  RH  025%=      5-min Rain = 0
KQU1 182355Z 27016KT 17/M04 A2962 RMK A01 T01681035  RH  025%=      5-min Rain = 0
KQU1 182356Z 27013KT 17/M04 A2962 RMK A01 T01681035  RH  025%=      5-min Rain = 0
KQU1 182357Z 28011KT 17/M04 A2962 RMK A01 T01671036  RH  025%=      5-min Rain = 0
KQU1 182358Z 29015KT 17/M04 A2962 RMK A01 T01671038  RH  024%=      5-min Rain = 0
KQU1 182359Z 28012KT 17/M04 A2962 RMK A01 T01671040  RH  024%=      5-min Rain = 0
KQU1 190000Z 27012G17KT 17/M04 A2962 RMK A01 T01661040  RH  024%=      5-min Rain = 0
KQU1 190001Z 27017KT 17/M04 A2961 RMK A01 T01661043  RH  024%=      5-min Rain = 0
KQU1 190002Z 27017KT 17/M05 A2962 RMK A01 T01661047  RH  023%=      5-min Rain = 0
KQU1 190003Z 27017KT 17/M05 A2962 RMK A01 T01661049  RH  023%=      5-min Rain = 0
KQU1 190004Z 28013KT 17/M05 A2962 RMK A01 T01651049  RH  023%=      5-min Rain = 0
KQU1 190005Z 28016KT 17/M05 A2962 RMK A01 T01651050  RH  022%=      5-min Rain = 0
KQU1 190006Z 28014KT 17/M05 A2962 RMK A01 T01651050  RH  022%=      5-min Rain = 0
KQU1 190007Z 27012KT 16/M05 A2962 RMK A01 T01641050  RH  023%=      5-min Rain = 0
KQU1 190008Z 29012KT 16/M05 A2962 RMK A01 T01631050  RH  023%=      5-min Rain = 0
KQU1 190009Z 29014KT 16/M05 A2962 RMK A01 T01631051  RH  023%=      5-min Rain = 0
KQU1 190010Z 30017G22KT 16/M05 A2963 RMK A01 T01631051  RH  023%=      5-min Rain = 0
KQU1 190011Z 34014G19KT 16/M05 A2964 RMK A01 T01621049  RH  023%=      5-min Rain = 0
KQU1 190012Z 34017G27KT 16/M04 A2965 RMK A01 T01611040  RH  025%=      5-min Rain = 0
KQU1 190013Z 35023G28KT 15/M02 A2965 RMK A01 T01511019  RH  031%=      5-min Rain = 0
KQU1 190014Z 35020KT 14/M01 A2966 RMK A01 T01391012  RH  035%=      5-min Rain = 0
KQU1 190015Z 35019G24KT 13/M01 A2966 RMK A01 T01301008  RH  039%=      5-min Rain = 0
KQU1 190016Z 34018G23KT 12/M01 A2966 RMK A01 T01231005  RH  041%=      5-min Rain = 0
KQU1 190017Z 35020KT 12/M00 A2966 RMK A01 T01191004  RH  043%=      5-min Rain = 0
KQU1 190018Z 35017G23KT 12/M00 A2967 RMK A01 T01151002  RH  044%=      5-min Rain = 0
KQU1 190019Z 36020G25KT 11/M00 A2967 RMK A01 T01121002  RH  045%=      5-min Rain = 0
KQU1 190020Z 34017G24KT 11/M00 A2967 RMK A01 T01101001  RH  046%=      5-min Rain = 0
KQU1 190021Z 34020KT 11/00 A2967 RMK A01 T010700-0  RH  047%=      5-min Rain = 0
KQU1 190022Z 34019G26KT 11/00 A2967 RMK A01 T01050000  RH  048%=      5-min Rain = 0
KQU1 190023Z 36019KT 10/00 A2967 RMK A01 T01020001  RH  050%=      5-min Rain = 0
KQU1 190024Z 35017G23KT 10/00 A2967 RMK A01 T01000001  RH  050%=      5-min Rain = 0
KQU1 190025Z 34021G26KT 10/00 A2967 RMK A01 T00980002  RH  051%=      5-min Rain = 0
KQU1 190026Z 35022G32KT 10/00 A2968 RMK A01 T00970002  RH  052%=      5-min Rain = 0
KQU1 190027Z 35020G25KT 10/00 A2968 RMK A01 T00950002  RH  052%=      5-min Rain = 0
KQU1 190028Z 35025G35KT 09/00 A2968 RMK A01 T00930002  RH  053%=      5-min Rain = 0
KQU1 190029Z 34026G32KT 09/00 A2969 RMK A01 T00920002  RH  054%=      5-min Rain = 0
KQU1 190030Z 35024G29KT 09/00 A2969 RMK A01 T00900003  RH  054%=      5-min Rain = 0
KQU1 190031Z 35029G41KT 09/00 A2969 RMK A01 T00890003  RH  055%=      5-min Rain = 0
KQU1 190032Z 35022G31KT 09/00 A2969 RMK A01 T00870003  RH  056%=      5-min Rain = 0
KQU1 190033Z 35025G32KT 09/00 A2969 RMK A01 T00860003  RH  056%=      5-min Rain = 0
KQU1 190034Z 34024G30KT 09/00 A2969 RMK A01 T00850003  RH  056%=      5-min Rain = 0
KQU1 190035Z 34026G34KT 08/00 A2969 RMK A01 T00840003  RH  057%=      5-min Rain = 0
KQU1 190036Z 35021G28KT 08/00 A297 RMK A01 T00820003  RH  057%=      5-min Rain = 0
KQU1 190037Z 35026G34KT 08/00 A297 RMK A01 T00810003  RH  058%=      5-min Rain = 0
KQU1 190038Z 00023G29KT 08/00 A297 RMK A01 T00800003  RH  058%=      5-min Rain = 0
KQU1 190039Z 35025G30KT 08/00 A297 RMK A01 T00780003  RH  059%=      5-min Rain = 0
KQU1 190040Z 36019G24KT 08/00 A297 RMK A01 T00770003  RH  060%=      5-min Rain = 0
KQU1 190041Z 35023G33KT 08/00 A297 RMK A01 T00760003  RH  060%=      5-min Rain = 0
KQU1 190042Z 34022G29KT 08/00 A2971 RMK A01 T00750003  RH  060%=      5-min Rain = 0
KQU1 190043Z 35027G36KT 07/00 A2971 RMK A01 T00740002  RH  060%=      5-min Rain = 0
KQU1 190044Z 35025G36KT 07/00 A2971 RMK A01 T00730002  RH  061%=      5-min Rain = 0
KQU1 190045Z 35025G32KT 07/00 A2971 RMK A01 T00710002  RH  061%=      5-min Rain = 0
KQU1 190046Z 35022G28KT 07/00 A2971 RMK A01 T00700001  RH  062%=      5-min Rain = 0
KQU1 190047Z 35021G30KT 07/00 A2972 RMK A01 T00680001  RH  062%=      5-min Rain = 0
KQU1 190048Z 35023G29KT 07/00 A2971 RMK A01 T00670001  RH  063%=      5-min Rain = 0
KQU1 190049Z 36021G30KT 07/00 A2972 RMK A01 T00660001  RH  063%=      5-min Rain = 0
KQU1 190050Z 35023G32KT 07/00 A2972 RMK A01 T00650000  RH  063%=      5-min Rain = 0
KQU1 190051Z 34028G36KT 06/00 A2972 RMK A01 T006400-0  RH  063%=      5-min Rain = 0
KQU1 190052Z 34025G30KT 06/M00 A2972 RMK A01 T00631001  RH  064%=      5-min Rain = 0
KQU1 190053Z 35023G29KT 06/M00 A2972 RMK A01 T00621001  RH  064%=      5-min Rain = 0
KQU1 190054Z 35024G29KT 06/M00 A2972 RMK A01 T00611001  RH  064%=      5-min Rain = 0
KQU1 190055Z 35022G28KT 06/M00 A2972 RMK A01 T00611001  RH  065%=      5-min Rain = 0
KQU1 190056Z 35024KT 06/M00 A2972 RMK A01 T00601001  RH  065%=      5-min Rain = 0
KQU1 190057Z 35023G31KT 06/M00 A2973 RMK A01 T00591001  RH  065%=      5-min Rain = 0
KQU1 190058Z 35021G33KT 06/M00 A2973 RMK A01 T00581001  RH  066%=      5-min Rain = 0
KQU1 190059Z 00023G34KT 06/M00 A2973 RMK A01 T00581001  RH  066%=      5-min Rain = 0
KQU1 190100Z 35024G32KT 06/M00 A2973 RMK A01 T00571002  RH  066%=      5-min Rain = 0
KQU1 190101Z 35025G31KT 06/M00 A2973 RMK A01 T00561002  RH  066%=      5-min Rain = 0
KQU1 190102Z 36020G31KT 06/M00 A2973 RMK A01 T00551002  RH  067%=      5-min Rain = 0
KQU1 190103Z 35020G26KT 06/M00 A2973 RMK A01 T00551002  RH  067%=      5-min Rain = 0
KQU1 190104Z 35022G33KT 05/M00 A2973 RMK A01 T00541002  RH  067%=      5-min Rain = 0
KQU1 190105Z 35023G33KT 05/M00 A2974 RMK A01 T00531002  RH  068%=      5-min Rain = 0
KQU1 190106Z 35023G33KT 05/M00 A2974 RMK A01 T00521003  RH  068%=      5-min Rain = 0
KQU1 190107Z 35023G34KT 05/M00 A2974 RMK A01 T00521003  RH  068%=      5-min Rain = 0
KQU1 190108Z 35018G24KT 05/M00 A2974 RMK A01 T00511002  RH  068%=      5-min Rain = 0
KQU1 190109Z 35017G26KT 05/M00 A2975 RMK A01 T00511002  RH  069%=      5-min Rain = 0
KQU1 190110Z 35022G27KT 05/M00 A2974 RMK A01 T00511002  RH  069%=      5-min Rain = 0
KQU1 190111Z 34024G32KT 05/M00 A2975 RMK A01 T00501002  RH  069%=      5-min Rain = 0
KQU1 190112Z 34025G33KT 05/M00 A2975 RMK A01 T00501003  RH  069%=      5-min Rain = 0
KQU1 190113Z 35024G33KT 05/M00 A2975 RMK A01 T00491003  RH  069%=      5-min Rain = 0
KQU1 190114Z 35024G31KT 05/M00 A2975 RMK A01 T00491002  RH  070%=      5-min Rain = 0
KQU1 190115Z 00024G32KT 05/M00 A2975 RMK A01 T00481002  RH  070%=      5-min Rain = 0
KQU1 190116Z 35023G30KT 05/M00 A2976 RMK A01 T00481002  RH  070%=      5-min Rain = 0
KQU1 190117Z 35022G33KT 05/M00 A2975 RMK A01 T00481003  RH  070%=      5-min Rain = 0
KQU1 190118Z 35031G36KT 05/M00 A2976 RMK A01 T00471003  RH  070%=      5-min Rain = 0
KQU1 190119Z 35027G34KT 05/M00 A2976 RMK A01 T00461003  RH  071%=      5-min Rain = 0
KQU1 190120Z 34025G37KT 05/M00 A2976 RMK A01 T00461003  RH  070%=      5-min Rain = 0
KQU1 190121Z 35027G33KT 05/M00 A2976 RMK A01 T00461004  RH  070%=      5-min Rain = 0
KQU1 190122Z 35024G35KT 05/M00 A2976 RMK A01 T00451004  RH  070%=      5-min Rain = 0
KQU1 190123Z 35024KT 05/M00 A2977 RMK A01 T00451003  RH  071%=      5-min Rain = 0
KQU1 190124Z 35024G32KT 05/M00 A2977 RMK A01 T00451004  RH  071%=      5-min Rain = 0
KQU1 190125Z 36020G25KT 05/M00 A2977 RMK A01 T00451003  RH  071%=      5-min Rain = 0
KQU1 190126Z 36025G34KT 04/M00 A2977 RMK A01 T00441004  RH  071%=      5-min Rain = 0
KQU1 190127Z 36022G30KT 04/M00 A2977 RMK A01 T00441003  RH  071%=      5-min Rain = 0
KQU1 190128Z 35028G33KT 04/M00 A2977 RMK A01 T00441004  RH  071%=      5-min Rain = 0
KQU1 190129Z 35021G28KT 04/M00 A2977 RMK A01 T00441004  RH  071%=      5-min Rain = 0
KQU1 190130Z 35016G21KT 04/M00 A2977 RMK A01 T00441004  RH  071%=      5-min Rain = 0
KQU1 190131Z 35020G28KT 04/M00 A2978 RMK A01 T00431004  RH  071%=      5-min Rain = 0
KQU1 190132Z 35024G35KT 04/M00 A2978 RMK A01 T00431004  RH  071%=      5-min Rain = 0
KQU1 190133Z 35023G30KT 04/M00 A2978 RMK A01 T00431004  RH  071%=      5-min Rain = 0
KQU1 190134Z 35021G28KT 04/M00 A2978 RMK A01 T00431004  RH  071%=      5-min Rain = 0
KQU1 190135Z 35026G36KT 04/M00 A2978 RMK A01 T00431004  RH  071%=      5-min Rain = 0
KQU1 190136Z 35027G36KT 04/M00 A2978 RMK A01 T00431004  RH  071%=      5-min Rain = 0
KQU1 190137Z 35025G35KT 04/M00 A2978 RMK A01 T00431004  RH  071%=      5-min Rain = 0
KQU1 190138Z 35024G34KT 04/M01 A2978 RMK A01 T00431005  RH  071%=      5-min Rain = 0
KQU1 190139Z 35028G37KT 04/M01 A2978 RMK A01 T00421006  RH  071%=      5-min Rain = 0
KQU1 190140Z 35023G28KT 04/M01 A2978 RMK A01 T00421005  RH  071%=      5-min Rain = 0
KQU1 190141Z 36021G29KT 04/M01 A2979 RMK A01 T00421005  RH  071%=      5-min Rain = 0
KQU1 190142Z 35021G29KT 04/M01 A2979 RMK A01 T00421005  RH  072%=      5-min Rain = 0
KQU1 190143Z 35020G25KT 04/M01 A2979 RMK A01 T00421005  RH  072%=      5-min Rain = 0
KQU1 190144Z 35020G28KT 04/M01 A2979 RMK A01 T00411005  RH  072%=      5-min Rain = 0
KQU1 190145Z 35021G28KT 04/M01 A2979 RMK A01 T00411005  RH  072%=      5-min Rain = 0
KQU1 190146Z 36025G34KT 04/M01 A2979 RMK A01 T00411006  RH  072%=      5-min Rain = 0
KQU1 190147Z 35022G28KT 04/M01 A2979 RMK A01 T00411005  RH  072%=      5-min Rain = 0
KQU1 190148Z 36021G28KT 04/M01 A2979 RMK A01 T00411005  RH  072%=      5-min Rain = 0
KQU1 190149Z 34027G34KT 04/M01 A298 RMK A01 T00411006  RH  072%=      5-min Rain = 0
KQU1 190150Z 35022G28KT 04/M01 A298 RMK A01 T00401006  RH  072%=      5-min Rain = 0
KQU1 190151Z 34025G32KT 04/M01 A298 RMK A01 T00401007  RH  072%=      5-min Rain = 0
KQU1 190152Z 35019G25KT 04/M01 A298 RMK A01 T00401006  RH  072%=      5-min Rain = 0
KQU1 190153Z 35028G34KT 04/M01 A298 RMK A01 T00401007  RH  072%=      5-min Rain = 0
KQU1 190154Z 35019G29KT 04/M01 A298 RMK A01 T00391006  RH  072%=      5-min Rain = 0
KQU1 190155Z 35023G33KT 04/M01 A298 RMK A01 T00391006  RH  072%=      5-min Rain = 0
KQU1 190156Z 00022G35KT 04/M01 A298 RMK A01 T00391006  RH  072%=      5-min Rain = 0
KQU1 190157Z 35024G30KT 04/M01 A2981 RMK A01 T00391006  RH  072%=      5-min Rain = 0
KQU1 190158Z 36019G26KT 04/M01 A2981 RMK A01 T00391006  RH  073%=      5-min Rain = 0
KQU1 190159Z 35023G29KT 04/M01 A2981 RMK A01 T00391006  RH  072%=      5-min Rain = 0
KQU1 190200Z 34022G35KT 04/M01 A2981 RMK A01 T00391007  RH  072%=      5-min Rain = 0
KQU1 190201Z 35023G32KT 04/M01 A2981 RMK A01 T00381007  RH  072%=      5-min Rain = 0
KQU1 190202Z 34023G30KT 04/M01 A2981 RMK A01 T00381007  RH  072%=      5-min Rain = 0
KQU1 190203Z 35025G31KT 04/M01 A2981 RMK A01 T00381006  RH  073%=      5-min Rain = 0
KQU1 190204Z 35029G37KT 04/M01 A2981 RMK A01 T00381007  RH  073%=      5-min Rain = 0
KQU1 190205Z 35030G35KT 04/M01 A2981 RMK A01 T00381007  RH  073%=      5-min Rain = 0
KQU1 190206Z 34027G35KT 04/M01 A2981 RMK A01 T00371007  RH  073%=      5-min Rain = 0
KQU1 190207Z 35029G40KT 04/M01 A2981 RMK A01 T00371007  RH  073%=      5-min Rain = 0
KQU1 190208Z 35024G30KT 04/M01 A2981 RMK A01 T00371006  RH  073%=      5-min Rain = 0
KQU1 190209Z 35023G35KT 04/M01 A2981 RMK A01 T00371006  RH  074%=      5-min Rain = 0
KQU1 190210Z 35020G28KT 04/M01 A2981 RMK A01 T00371006  RH  073%=      5-min Rain = 0
KQU1 190211Z 34025G31KT 04/M01 A2981 RMK A01 T00371006  RH  073%=      5-min Rain = 0
KQU1 190212Z 35027G33KT 04/M01 A2981 RMK A01 T00371007  RH  073%=      5-min Rain = 0
KQU1 190213Z 34022G27KT 04/M01 A2982 RMK A01 T00371006  RH  074%=      5-min Rain = 0
KQU1 190214Z 34023G29KT 04/M01 A2982 RMK A01 T00371006  RH  073%=      5-min Rain = 0
KQU1 190215Z 35021G27KT 04/M01 A2982 RMK A01 T00371006  RH  073%=      5-min Rain = 0
KQU1 190216Z 34026G37KT 04/M01 A2982 RMK A01 T00371006  RH  073%=      5-min Rain = 0
KQU1 190217Z 35029G38KT 04/M01 A2982 RMK A01 T00361007  RH  073%=      5-min Rain = 0
KQU1 190218Z 34032G38KT 04/M01 A2982 RMK A01 T00361008  RH  073%=      5-min Rain = 0
KQU1 190219Z 35029G36KT 04/M01 A2982 RMK A01 T00361007  RH  074%=      5-min Rain = 0
KQU1 190220Z 35025G32KT 04/M01 A2982 RMK A01 T00361006  RH  074%=      5-min Rain = 0
KQU1 190221Z 35024G32KT 04/M01 A2983 RMK A01 T00361007  RH  074%=      5-min Rain = 0
KQU1 190222Z 00025G36KT 04/M01 A2982 RMK A01 T00361006  RH  074%=      5-min Rain = 0
KQU1 190223Z 35030G44KT 04/M01 A2982 RMK A01 T00351007  RH  074%=      5-min Rain = 0
KQU1 190224Z 34032G38KT 04/M01 A2982 RMK A01 T00351007  RH  074%=      5-min Rain = 0
KQU1 190225Z 35029G37KT 04/M01 A2983 RMK A01 T00351007  RH  074%=      5-min Rain = 0
KQU1 190226Z 36027G35KT 04/M01 A2983 RMK A01 T00351007  RH  074%=      5-min Rain = 0
KQU1 190227Z 35031G40KT 04/M01 A2983 RMK A01 T00351007  RH  074%=      5-min Rain = 0
KQU1 190228Z 34026G36KT 04/M01 A2983 RMK A01 T00351007  RH  074%=      5-min Rain = 0
KQU1 190229Z 35026G32KT 04/M01 A2983 RMK A01 T00351007  RH  074%=      5-min Rain = 0
KQU1 190230Z 36026G37KT 03/M01 A2983 RMK A01 T00341007  RH  074%=      5-min Rain = 0
KQU1 190231Z 35029G37KT 03/M01 A2983 RMK A01 T00341007  RH  074%=      5-min Rain = 0
KQU1 190232Z 35025G31KT 03/M01 A2983 RMK A01 T00341007  RH  075%=      5-min Rain = 0
KQU1 190233Z 33022G28KT 04/M01 A2983 RMK A01 T00351007  RH  074%=      5-min Rain = 0
KQU1 190234Z 34024G31KT 03/M01 A2984 RMK A01 T00341008  RH  074%=      5-min Rain = 0
KQU1 190235Z 34023G33KT 03/M01 A2984 RMK A01 T00341008  RH  074%=      5-min Rain = 0
KQU1 190236Z 34023G33KT 03/M01 A2984 RMK A01 T00341008  RH  074%=      5-min Rain = 0
KQU1 190237Z 35026G32KT 03/M01 A2984 RMK A01 T00341008  RH  074%=      5-min Rain = 0
KQU1 190238Z 35029G35KT 03/M01 A2984 RMK A01 T00341008  RH  074%=      5-min Rain = 0
KQU1 190239Z 35024G37KT 03/M01 A2984 RMK A01 T00331008  RH  074%=      5-min Rain = 0
KQU1 190240Z 35020G31KT 03/M01 A2985 RMK A01 T00331007  RH  075%=      5-min Rain = 0
KQU1 190241Z 34025G33KT 03/M01 A2985 RMK A01 T00331008  RH  074%=      5-min Rain = 0
KQU1 190242Z 35021G33KT 03/M01 A2985 RMK A01 T00331008  RH  075%=      5-min Rain = 0
KQU1 190243Z 34022G31KT 03/M01 A2985 RMK A01 T00331008  RH  075%=      5-min Rain = 0
KQU1 190244Z 35032G38KT 03/M01 A2985 RMK A01 T00331010  RH  074%=      5-min Rain = 0
KQU1 190245Z 35027G37KT 03/M01 A2985 RMK A01 T00331009  RH  074%=      5-min Rain = 0
KQU1 190246Z 34024G34KT 03/M01 A2985 RMK A01 T00321010  RH  074%=      5-min Rain = 0
KQU1 190247Z 35026G33KT 03/M01 A2985 RMK A01 T00321010  RH  074%=      5-min Rain = 0
KQU1 190248Z 36027G38KT 03/M01 A2985 RMK A01 T00321010  RH  074%=      5-min Rain = 0
KQU1 190249Z 35026G39KT 03/M01 A2985 RMK A01 T00321010  RH  074%=      5-min Rain = 0
KQU1 190250Z 34027G35KT 03/M01 A2985 RMK A01 T00321011  RH  073%=      5-min Rain = 0
KQU1 190251Z 34027G39KT 03/M01 A2985 RMK A01 T00321011  RH  073%=      5-min Rain = 0
KQU1 190252Z 35028G36KT 03/M01 A2985 RMK A01 T00321012  RH  073%=      5-min Rain = 0
KQU1 190253Z 34030G39KT 03/M01 A2985 RMK A01 T00321012  RH  073%=      5-min Rain = 0
KQU1 190254Z 35024G33KT 03/M01 A2985 RMK A01 T00321013  RH  072%=      5-min Rain = 0
KQU1 190255Z 36023G37KT 03/M01 A2985 RMK A01 T00321012  RH  073%=      5-min Rain = 0
KQU1 190256Z 34029G38KT 03/M01 A2985 RMK A01 T00321013  RH  072%=      5-min Rain = 0
KQU1 190257Z 35027G34KT 03/M02 A2985 RMK A01 T00321015  RH  071%=      5-min Rain = 0
KQU1 190258Z 35026G34KT 03/M01 A2985 RMK A01 T00321014  RH  072%=      5-min Rain = 0
KQU1 190259Z 35027G38KT 03/M02 A2986 RMK A01 T00321015  RH  071%=      5-min Rain = 0
KQU1 190300Z 34025G34KT 03/M02 A2986 RMK A01 T00321016  RH  071%=      5-min Rain = 0
KQU1 190301Z 34022G27KT 03/M02 A2986 RMK A01 T00321015  RH  071%=      5-min Rain = 0
KQU1 190302Z 34025G31KT 03/M02 A2986 RMK A01 T00321016  RH  071%=      5-min Rain = 0
KQU1 190303Z 34027G34KT 03/M02 A2986 RMK A01 T00321016  RH  071%=      5-min Rain = 0
KQU1 190304Z 35031G38KT 03/M02 A2986 RMK A01 T00321017  RH  070%=      5-min Rain = 0
KQU1 190305Z 34026G34KT 03/M02 A2986 RMK A01 T00321017  RH  070%=      5-min Rain = 0
KQU1 190306Z 35027G37KT 03/M02 A2986 RMK A01 T00321018  RH  070%=      5-min Rain = 0
KQU1 190307Z 34023G34KT 03/M02 A2986 RMK A01 T00311019  RH  070%=      5-min Rain = 0
KQU1 190308Z 34027G40KT 03/M02 A2986 RMK A01 T00311019  RH  070%=      5-min Rain = 0
KQU1 190309Z 34030G41KT 03/M02 A2986 RMK A01 T00311021  RH  069%=      5-min Rain = 0
KQU1 190310Z 34039G49KT 03/M02 A2986 RMK A01 T00301022  RH  068%=      5-min Rain = 0
KQU1 190311Z 34027G33KT 03/M02 A2986 RMK A01 T00301023  RH  068%=      5-min Rain = 0
KQU1 190312Z 34021G26KT 03/M02 A2987 RMK A01 T00301021  RH  069%=      5-min Rain = 0
KQU1 190313Z 35029G40KT 03/M02 A2987 RMK A01 T00301022  RH  068%=      5-min Rain = 0
KQU1 190314Z 36028G38KT 03/M02 A2987 RMK A01 T00301023  RH  068%=      5-min Rain = 0
KQU1 190315Z 34026G33KT 03/M02 A2987 RMK A01 T00301022  RH  069%=      5-min Rain = 0
KQU1 190316Z 34030KT 03/M02 A2987 RMK A01 T00291023  RH  068%=      5-min Rain = 0
KQU1 190317Z 35030G43KT 03/M02 A2987 RMK A01 T00291023  RH  068%=      5-min Rain = 0
KQU1 190318Z 35027G38KT 03/M02 A2987 RMK A01 T00291023  RH  069%=      5-min Rain = 0
KQU1 190319Z 35034G43KT 03/M02 A2987 RMK A01 T00291023  RH  069%=      5-min Rain = 0
KQU1 190320Z 35025G35KT 03/M02 A2988 RMK A01 T00291023  RH  069%=      5-min Rain = 0
KQU1 190321Z 35023G32KT 03/M02 A2988 RMK A01 T00291022  RH  069%=      5-min Rain = 0
KQU1 190322Z 35028G37KT 03/M02 A2988 RMK A01 T00291023  RH  069%=      5-min Rain = 0
KQU1 190323Z 35023G32KT 03/M02 A2988 RMK A01 T00291023  RH  069%=      5-min Rain = 0
KQU1 190324Z 35030G43KT 03/M02 A2988 RMK A01 T00291023  RH  069%=      5-min Rain = 0
KQU1 190325Z 35022G32KT 03/M02 A2988 RMK A01 T00291022  RH  069%=      5-min Rain = 0
KQU1 190326Z 35026G40KT 03/M02 A2988 RMK A01 T00291023  RH  069%=      5-min Rain = 0
KQU1 190327Z 36023G30KT 03/M02 A2988 RMK A01 T00291022  RH  069%=      5-min Rain = 0
KQU1 190328Z 35024G33KT 03/M02 A2988 RMK A01 T00291021  RH  069%=      5-min Rain = 0
KQU1 190329Z 35023G29KT 03/M02 A2988 RMK A01 T00291021  RH  069%=      5-min Rain = 0
KQU1 190330Z 34021G28KT 03/M02 A2989 RMK A01 T00291022  RH  069%=      5-min Rain = 0
KQU1 190331Z 35023G35KT 03/M02 A2989 RMK A01 T00291022  RH  069%=      5-min Rain = 0
KQU1 190332Z 36022G31KT 03/M02 A2989 RMK A01 T00291021  RH  069%=      5-min Rain = 0
KQU1 190333Z 34025G32KT 03/M02 A2989 RMK A01 T00291022  RH  069%=      5-min Rain = 0
KQU1 190334Z 34029G36KT 03/M02 A2989 RMK A01 T00291023  RH  069%=      5-min Rain = 0
KQU1 190335Z 34029G35KT 03/M02 A2989 RMK A01 T00281024  RH  069%=      5-min Rain = 0
KQU1 190336Z 34032G40KT 03/M02 A2989 RMK A01 T00281024  RH  069%=      5-min Rain = 0
KQU1 190337Z 35030G40KT 03/M02 A2989 RMK A01 T00271024  RH  069%=      5-min Rain = 0
KQU1 190338Z 35027G33KT 03/M02 A2989 RMK A01 T00271023  RH  069%=      5-min Rain = 0
KQU1 190339Z 35023G31KT 03/M02 A299 RMK A01 T00271023  RH  069%=      5-min Rain = 0
KQU1 190340Z 34026G33KT 03/M02 A299 RMK A01 T00271024  RH  069%=      5-min Rain = 0
KQU1 190341Z 34032G41KT 03/M03 A299 RMK A01 T00261025  RH  069%=      5-min Rain = 0
KQU1 190342Z 34031G45KT 03/M03 A299 RMK A01 T00261025  RH  069%=      5-min Rain = 0
KQU1 190343Z 34030G38KT 03/M03 A299 RMK A01 T00261025  RH  069%=      5-min Rain = 0
KQU1 190344Z 35034G39KT 03/M03 A299 RMK A01 T00251025  RH  069%=      5-min Rain = 0
KQU1 190345Z 34029G36KT 03/M03 A299 RMK A01 T00251026  RH  069%=      5-min Rain = 0
KQU1 190346Z 33027G37KT 03/M03 A2991 RMK A01 T00251026  RH  069%=      5-min Rain = 0
KQU1 190347Z 34031G39KT 02/M03 A2991 RMK A01 T00241026  RH  069%=      5-min Rain = 0
KQU1 190348Z 34027G34KT 02/M03 A2991 RMK A01 T00241026  RH  069%=      5-min Rain = 0
KQU1 190349Z 34029G39KT 02/M03 A2991 RMK A01 T00241026  RH  069%=      5-min Rain = 0
KQU1 190350Z 34025G34KT 02/M03 A2991 RMK A01 T00241027  RH  069%=      5-min Rain = 0
KQU1 190351Z 35027G34KT 02/M03 A2991 RMK A01 T00241026  RH  070%=      5-min Rain = 0
KQU1 190352Z 34025G31KT 02/M03 A2991 RMK A01 T00241025  RH  070%=      5-min Rain = 0
KQU1 190353Z 34024G33KT 02/M03 A2992 RMK A01 T00241025  RH  070%=      5-min Rain = 0
KQU1 190354Z 34025G33KT 02/M03 A2991 RMK A01 T00241026  RH  069%=      5-min Rain = 0
KQU1 190355Z 34021G32KT 02/M03 A2992 RMK A01 T00241025  RH  070%=      5-min Rain = 0
KQU1 190356Z 34020G30KT 02/M03 A2992 RMK A01 T00241025  RH  070%=      5-min Rain = 0
KQU1 190357Z 35026G34KT 02/M03 A2992 RMK A01 T00241025  RH  070%=      5-min Rain = 0
KQU1 190358Z 35024G34KT 02/M03 A2992 RMK A01 T00241025  RH  070%=      5-min Rain = 0
KQU1 190359Z 34031G37KT 03/M03 A2992 RMK A01 T00251025  RH  070%=      5-min Rain = 0
KQU1 190400Z 34028G35KT 02/M03 A2992 RMK A01 T00241026  RH  069%=      5-min Rain = 0
KQU1 190401Z 00025G37KT 02/M03 A2992 RMK A01 T00241025  RH  070%=      5-min Rain = 0
KQU1 190402Z 34024G33KT 02/M03 A2992 RMK A01 T00241025  RH  070%=      5-min Rain = 0
KQU1 190403Z 35032KT 02/M03 A2992 RMK A01 T00241026  RH  070%=      5-min Rain = 0
KQU1 190404Z 35027G35KT 02/M03 A2992 RMK A01 T00241025  RH  070%=      5-min Rain = 0
KQU1 190405Z 34029G37KT 02/M03 A2993 RMK A01 T00241025  RH  070%=      5-min Rain = 0
KQU1 190406Z 34028G35KT 02/M03 A2993 RMK A01 T00231026  RH  070%=      5-min Rain = 0
KQU1 190407Z 35026G33KT 02/M03 A2993 RMK A01 T00231025  RH  070%=      5-min Rain = 0
KQU1 190408Z 34029G39KT 02/M03 A2993 RMK A01 T00231025  RH  070%=      5-min Rain = 0
KQU1 190409Z 34027G36KT 02/M03 A2993 RMK A01 T00231025  RH  070%=      5-min Rain = 0
KQU1 190410Z 35029G38KT 02/M03 A2993 RMK A01 T00231025  RH  070%=      5-min Rain = 0
KQU1 190411Z 35028G33KT 02/M03 A2993 RMK A01 T00231025  RH  071%=      5-min Rain = 0
KQU1 190412Z 35022G30KT 02/M03 A2993 RMK A01 T00231025  RH  071%=      5-min Rain = 0
KQU1 190413Z 35023G30KT 02/M03 A2994 RMK A01 T00231026  RH  070%=      5-min Rain = 0
KQU1 190414Z 34026G37KT 02/M03 A2994 RMK A01 T00231026  RH  070%=      5-min Rain = 0
KQU1 190415Z 35031G39KT 02/M03 A2994 RMK A01 T00221026  RH  070%=      5-min Rain = 0
KQU1 190416Z 35027G34KT 02/M03 A2994 RMK A01 T00221026  RH  071%=      5-min Rain = 0
KQU1 190417Z 34027G35KT 02/M03 A2994 RMK A01 T00221026  RH  070%=      5-min Rain = 0
KQU1 190418Z 34022G31KT 02/M03 A2994 RMK A01 T00221026  RH  070%=      5-min Rain = 0
KQU1 190419Z 35024G31KT 02/M03 A2994 RMK A01 T00221026  RH  071%=      5-min Rain = 0
KQU1 190420Z 35022G29KT 02/M03 A2994 RMK A01 T00221026  RH  071%=      5-min Rain = 0
KQU1 190421Z 33024G31KT 02/M03 A2994 RMK A01 T00221027  RH  070%=      5-min Rain = 0
KQU1 190422Z 34026KT 02/M03 A2995 RMK A01 T00221027  RH  070%=      5-min Rain = 0
KQU1 190423Z 33027G39KT 02/M03 A2995 RMK A01 T00211028  RH  070%=      5-min Rain = 0
KQU1 190424Z 34023G29KT 02/M03 A2995 RMK A01 T00211027  RH  070%=      5-min Rain = 0
KQU1 190425Z 35023G31KT 02/M03 A2995 RMK A01 T00211026  RH  071%=      5-min Rain = 0
KQU1 190426Z 34030G40KT 02/M03 A2995 RMK A01 T00211026  RH  071%=      5-min Rain = 0
KQU1 190427Z 35026G36KT 02/M03 A2995 RMK A01 T00211025  RH  072%=      5-min Rain = 0
KQU1 190428Z 34027G37KT 02/M03 A2995 RMK A01 T00211025  RH  072%=      5-min Rain = 0
KQU1 190429Z 35026G32KT 02/M03 A2995 RMK A01 T00201025  RH  072%=      5-min Rain = 0
KQU1 190430Z 35027G33KT 02/M02 A2996 RMK A01 T00201024  RH  072%=      5-min Rain = 0
KQU1 190431Z 35029G37KT 02/M03 A2995 RMK A01 T00201025  RH  072%=      5-min Rain = 0
KQU1 190432Z 35024G34KT 02/M02 A2996 RMK A01 T00201023  RH  073%=      5-min Rain = 0
KQU1 190433Z 35024G31KT 02/M02 A2996 RMK A01 T00191023  RH  074%=      5-min Rain = 0
KQU1 190434Z 35021G27KT 02/M02 A2996 RMK A01 T00191022  RH  074%=      5-min Rain = 0
KQU1 190435Z 35024G35KT 02/M02 A2996 RMK A01 T00191022  RH  075%=      5-min Rain = 0
KQU1 190436Z 35025G31KT 02/M02 A2996 RMK A01 T00181022  RH  075%=      5-min Rain = 0
KQU1 190437Z 34023G32KT 02/M02 A2996 RMK A01 T00181021  RH  075%=      5-min Rain = 0
KQU1 190438Z 35026G37KT 02/M02 A2996 RMK A01 T00171021  RH  076%=      5-min Rain = 0
KQU1 190439Z 34028G34KT 02/M02 A2996 RMK A01 T00171022  RH  076%=      5-min Rain = 0
KQU1 190440Z 35021G29KT 02/M02 A2996 RMK A01 T00171020  RH  077%=      5-min Rain = 0
KQU1 190441Z 35025G30KT 02/M02 A2996 RMK A01 T00161020  RH  077%=      5-min Rain = 0
KQU1 190442Z 34026G33KT 02/M02 A2997 RMK A01 T00161020  RH  077%=      5-min Rain = 0
KQU1 190443Z 35018G29KT 02/M02 A2997 RMK A01 T00161019  RH  078%=      5-min Rain = 0
KQU1 190444Z 35015G22KT 02/M02 A2997 RMK A01 T00151019  RH  078%=      5-min Rain = 0
KQU1 190445Z 35016G26KT 02/M02 A2997 RMK A01 T00151019  RH  078%=      5-min Rain = 0
KQU1 190446Z 35020G28KT 02/M02 A2997 RMK A01 T00151019  RH  078%=      5-min Rain = 0
KQU1 190447Z 35019G28KT 02/M02 A2997 RMK A01 T00161018  RH  078%=      5-min Rain = 0
KQU1 190448Z 35022G28KT 02/M02 A2997 RMK A01 T00151019  RH  078%=      5-min Rain = 0
KQU1 190449Z 35018KT 02/M02 A2997 RMK A01 T00151018  RH  078%=      5-min Rain = 0
KQU1 190450Z 33022G42KT 02/M02 A2997 RMK A01 T00151019  RH  078%=      5-min Rain = 0
KQU1 190451Z 34029G38KT 01/M02 A2997 RMK A01 T00141020  RH  078%=      5-min Rain = 0
KQU1 190452Z 35025KT 01/M02 A2997 RMK A01 T00141020  RH  078%=      5-min Rain = 0
KQU1 190453Z 35020G27KT 01/M02 A2997 RMK A01 T00131019  RH  079%=      5-min Rain = 0
KQU1 190454Z 34020G28KT 01/M02 A2998 RMK A01 T00131018  RH  080%=      5-min Rain = 0
KQU1 190455Z 35030G39KT 01/M02 A2997 RMK A01 T00121019  RH  080%=      5-min Rain = 0
KQU1 190456Z 34028G36KT 01/M02 A2997 RMK A01 T00121019  RH  080%=      5-min Rain = 0
KQU1 190457Z 34027G33KT 01/M02 A2997 RMK A01 T00111019  RH  081%=      5-min Rain = 0
KQU1 190458Z 34028G38KT 01/M02 A2997 RMK A01 T00111020  RH  080%=      5-min Rain = 0
KQU1 190459Z 35024G33KT 01/M02 A2998 RMK A01 T00101019  RH  081%=      5-min Rain = 0
KQU1 190500Z 35029G36KT 01/M02 A2998 RMK A01 T00101019  RH  081%=      5-min Rain = 0
KQU1 190501Z 34022G32KT 01/M02 A2998 RMK A01 T00101019  RH  081%=      5-min Rain = 0
KQU1 190502Z 36024G33KT 01/M02 A2998 RMK A01 T00091017  RH  082%=      5-min Rain = 0
KQU1 190503Z 35024G34KT 01/M02 A2998 RMK A01 T00081017  RH  083%=      5-min Rain = 0
KQU1 190504Z 35022G31KT 01/M02 A2998 RMK A01 T00081016  RH  084%=      5-min Rain = 0
KQU1 190505Z 35021G34KT 01/M02 A2998 RMK A01 T00071015  RH  085%=      5-min Rain = 0
KQU1 190506Z 34020G27KT 01/M02 A2998 RMK A01 T00071015  RH  086%=      5-min Rain = 0
KQU1 190507Z 34027G35KT 01/M02 A2998 RMK A01 T00061015  RH  086%=      5-min Rain = 0
KQU1 190508Z 34021G29KT 01/M02 A2999 RMK A01 T00061015  RH  086%=      5-min Rain = 0
KQU1 190509Z 34021G28KT 01/M01 A2998 RMK A01 T00061014  RH  086%=      5-min Rain = 0
KQU1 190510Z 34019G26KT 01/M01 A2999 RMK A01 T00061014  RH  087%=      5-min Rain = 0
KQU1 190511Z 35023G31KT 01/M02 A2998 RMK A01 T00061015  RH  086%=      5-min Rain = 0
KQU1 190512Z 34029G40KT 01/M02 A2999 RMK A01 T00061016  RH  085%=      5-min Rain = 0
KQU1 190513Z 34029G41KT 01/M02 A2999 RMK A01 T00071018  RH  083%=      5-min Rain = 0
KQU1 190514Z 35022G31KT 01/M02 A2999 RMK A01 T00071018  RH  083%=      5-min Rain = 0
KQU1 190515Z 35027G41KT 01/M02 A2999 RMK A01 T00081019  RH  082%=      5-min Rain = 0
KQU1 190516Z 34026G42KT 01/M02 A2999 RMK A01 T00081020  RH  082%=      5-min Rain = 0
KQU1 190517Z 35033G39KT 01/M02 A2999 RMK A01 T00091021  RH  080%=      5-min Rain = 0
KQU1 190518Z 35029G38KT 01/M02 A2999 RMK A01 T00101021  RH  080%=      5-min Rain = 0
KQU1 190519Z 35025G35KT 01/M02 A2999 RMK A01 T00101021  RH  080%=      5-min Rain = 0
KQU1 190520Z 35023G37KT 01/M02 A2999 RMK A01 T00111021  RH  080%=      5-min Rain = 0
KQU1 190521Z 35022G30KT 01/M02 A2999 RMK A01 T00101020  RH  080%=      5-min Rain = 0
KQU1 190522Z 34021G31KT 01/M02 A2999 RMK A01 T00101019  RH  080%=      5-min Rain = 0
KQU1 190523Z 35027G35KT 01/M02 A2999 RMK A01 T00111021  RH  079%=      5-min Rain = 0
KQU1 190524Z 34026G31KT 01/M02 A2999 RMK A01 T00111021  RH  079%=      5-min Rain = 0
KQU1 190525Z 35027G33KT 01/M02 A2999 RMK A01 T00121022  RH  078%=      5-min Rain = 0
KQU1 190526Z 35021G32KT 01/M02 A2999 RMK A01 T00121022  RH  078%=      5-min Rain = 0
KQU1 190527Z 34028G35KT 01/M02 A30 RMK A01 T00121022  RH  078%=      5-min Rain = 0
KQU1 190528Z 34027G34KT 01/M02 A30 RMK A01 T00121023  RH  077%=      5-min Rain = 0
KQU1 190529Z 35028G38KT 01/M02 A30 RMK A01 T00121023  RH  078%=      5-min Rain = 0
KQU1 190530Z 35023KT 01/M02 A30 RMK A01 T00121023  RH  077%=      5-min Rain = 0
KQU1 190531Z 34026G32KT 01/M02 A30 RMK A01 T00121023  RH  078%=      5-min Rain = 0
KQU1 190532Z 35028G36KT 01/M02 A30 RMK A01 T00121024  RH  077%=      5-min Rain = 0
KQU1 190533Z 35023G29KT 01/M02 A30 RMK A01 T00111024  RH  077%=      5-min Rain = 0
KQU1 190534Z 35026G35KT 01/M02 A30 RMK A01 T00111024  RH  077%=      5-min Rain = 0
KQU1 190535Z 35026G34KT 01/M02 A30 RMK A01 T00111024  RH  077%=      5-min Rain = 0
KQU1 190536Z 34027G36KT 01/M03 A30 RMK A01 T00111025  RH  077%=      5-min Rain = 0
KQU1 190537Z 34029KT 01/M03 A30 RMK A01 T00111026  RH  076%=      5-min Rain = 0
KQU1 190538Z 35025G34KT 01/M03 A3001 RMK A01 T00111025  RH  077%=      5-min Rain = 0
KQU1 190539Z 36026G33KT 01/M03 A3001 RMK A01 T00111025  RH  077%=      5-min Rain = 0
KQU1 190540Z 35022G30KT 01/M03 A3001 RMK A01 T00101025  RH  077%=      5-min Rain = 0
KQU1 190541Z 34027G40KT 01/M03 A3001 RMK A01 T00101026  RH  077%=      5-min Rain = 0
KQU1 190542Z 34026G33KT 01/M03 A30 RMK A01 T00101026  RH  077%=      5-min Rain = 0
KQU1 190543Z 35029G41KT 01/M03 A3001 RMK A01 T00101026  RH  076%=      5-min Rain = 0
KQU1 190544Z 34030G36KT 01/M03 A3001 RMK A01 T00101026  RH  076%=      5-min Rain = 0
KQU1 190545Z 35025G34KT 01/M03 A3001 RMK A01 T00101027  RH  076%=      5-min Rain = 0
KQU1 190546Z 35024G31KT 01/M03 A3001 RMK A01 T00101025  RH  077%=      5-min Rain = 0
KQU1 190547Z 35023G32KT 01/M03 A3001 RMK A01 T00101025  RH  077%=      5-min Rain = 0
KQU1 190548Z 35025G33KT 01/M03 A3001 RMK A01 T00101026  RH  077%=      5-min Rain = 0
KQU1 190549Z 34022G30KT 01/M03 A3001 RMK A01 T00111025  RH  077%=      5-min Rain = 0
KQU1 190550Z 34028G42KT 01/M03 A3001 RMK A01 T00111026  RH  076%=      5-min Rain = 0
KQU1 190551Z 35025G33KT 01/M03 A3001 RMK A01 T00111026  RH  076%=      5-min Rain = 0
KQU1 190552Z 35023G33KT 01/M03 A3001 RMK A01 T00111026  RH  076%=      5-min Rain = 0
KQU1 190553Z 34021G31KT 01/M03 A3001 RMK A01 T00111026  RH  076%=      5-min Rain = 0
KQU1 190554Z 34020G25KT 01/M03 A3001 RMK A01 T00111025  RH  077%=      5-min Rain = 0
KQU1 190555Z 35028G35KT 01/M03 A3001 RMK A01 T00111026  RH  076%=      5-min Rain = 0
KQU1 190556Z 35025G32KT 01/M03 A3001 RMK A01 T00111026  RH  076%=      5-min Rain = 0
KQU1 190557Z 36024G34KT 01/M03 A3002 RMK A01 T00111025  RH  077%=      5-min Rain = 0
KQU1 190558Z 35023G30KT 01/M03 A3002 RMK A01 T00111025  RH  076%=      5-min Rain = 0
KQU1 190559Z 35023G30KT 01/M03 A3002 RMK A01 T00121026  RH  076%=      5-min Rain = 0

Page generated in 0.0338 seconds.